M I D A S
Marine Information and Data Acquisition System
Tripno 948 of the Zeeleeuw from 2005-07-08 06:37:41 to 2005-07-08 14:21:59
Back to CruiseResearch ActivitiesStationsMapUnderway DataData graphs

EquipmentUnitsComment
TimeDGPSUTC
LatitudeDGPSDM.mWGS84
LongitudeDGPSDM.mWGS84
TemperatureSBE03/SBE38deg celciusITS90
ConductivitySBE21S/mITS90
SalinitySBE21 Practical Salinity Units
ChlorophylAChelsea fluorimeterg/lCalibrated in Aceton
Missing or incorrect values are displayed as -999
Sea surface data collected by the RV Zeeleeuw from 2005-07-08 06:32:46 to 2005-07-08 14:33:27
                                                                                    Next 1000 lines
Time Latitude Longitude Temperature Conductivity Salinity ChlorophylA
2005-07-08 06:32:57 51°13.681 2°55.905 20.6375 3.595459 25.825959 0.095195
2005-07-08 06:33:02 51°13.681 2°55.905 20.6134 3.595459 25.826399 0.095195
2005-07-08 06:33:07 51°13.681 2°55.905 20.6313 3.595459 25.825959 0.095195
2005-07-08 06:33:11 51°13.681 2°55.905 20.6251 3.595459 25.826399 0.128905
2005-07-08 06:33:15 51°13.681 2°55.905 20.64 3.595459 25.826399 0.095195
2005-07-08 06:33:22 51°13.681 2°55.905 20.6368 3.595459 25.826399 0.095195
2005-07-08 06:33:27 51°13.681 2°55.905 20.6288 3.595354 25.82512 0.095195
2005-07-08 06:33:32 51°13.681 2°55.905 20.6317 3.595354 25.82556 0.095195
2005-07-08 06:33:37 51°13.682 2°55.905 20.6347 3.595354 25.826 0.095195
2005-07-08 06:33:42 51°13.681 2°55.905 20.6338 3.595459 25.827278 0.095195
2005-07-08 06:33:46 51°13.681 2°55.905 20.634 3.595354 25.82644 0.095195
2005-07-08 06:33:51 51°13.681 2°55.905 20.6309 3.595354 25.82644 0.095195
2005-07-08 06:33:56 51°13.68 2°55.905 20.6306 3.595354 25.826 0.095195
2005-07-08 06:34:01 51°13.68 2°55.905 20.6309 3.595459 25.827278 0.095195
2005-07-08 06:34:06 51°13.68 2°55.905 20.6313 3.595459 25.827278 0.095195
2005-07-08 06:34:12 51°13.68 2°55.905 20.6333 3.595459 25.826839 0.095195
2005-07-08 06:34:16 51°13.68 2°55.905 20.6347 3.595354 25.82644 0.095195
2005-07-08 06:34:21 51°13.68 2°55.905 20.6349 3.595354 25.82644 0.095195
2005-07-08 06:34:26 51°13.68 2°55.905 20.6353 3.595354 25.82644 0.095195
2005-07-08 06:34:31 51°13.681 2°55.905 20.6362 3.595354 25.82644 0.095195
2005-07-08 06:34:36 51°13.681 2°55.905 20.636 3.595354 25.82644 0.095195
2005-07-08 06:34:42 51°13.681 2°55.905 20.6372 3.595248 25.826041 0.095195
2005-07-08 06:34:46 51°13.681 2°55.904 20.6364 3.595248 25.826481 0.061486
2005-07-08 06:34:52 51°13.681 2°55.904 20.6365 3.595248 25.826481 0.061486
2005-07-08 06:34:56 51°13.681 2°55.904 20.6371 3.595248 25.826041 0.128905
2005-07-08 06:35:02 51°13.682 2°55.904 20.6386 3.595248 25.826041 0.095195
2005-07-08 06:35:06 51°13.682 2°55.904 20.6396 3.595354 25.82688 0.095195
2005-07-08 06:35:11 51°13.682 2°55.904 20.6402 3.595248 25.826041 0.128905
2005-07-08 06:35:16 51°13.682 2°55.904 20.6413 3.595248 25.826041 0.095195
2005-07-08 06:35:22 51°13.682 2°55.904 20.6415 3.595248 25.826041 0.095195
2005-07-08 06:35:27 51°13.682 2°55.904 20.6418 3.595143 25.825642 0.061486
2005-07-08 06:35:31 51°13.682 2°55.904 20.6435 3.595248 25.826921 0.095195
2005-07-08 06:35:37 51°13.682 2°55.904 20.6443 3.595248 25.826481 0.095195
2005-07-08 06:35:42 51°13.682 2°55.904 20.6456 3.595248 25.826481 0.095195
2005-07-08 06:35:47 51°13.682 2°55.904 20.646 3.595248 25.826481 0.061486
2005-07-08 06:35:51 51°13.682 2°55.904 20.6467 3.595248 25.826481 0.061486
2005-07-08 06:35:56 51°13.682 2°55.904 20.648 3.595143 25.826082 0.128905
2005-07-08 06:36:02 51°13.682 2°55.904 20.6484 3.595143 25.825642 0.095195
2005-07-08 06:36:07 51°13.682 2°55.904 20.6488 3.595248 25.826921 0.061486
2005-07-08 06:36:11 51°13.682 2°55.904 20.6488 3.595143 25.826082 0.128905
2005-07-08 06:36:16 51°13.682 2°55.904 20.6485 3.595248 25.826921 0.095195
2005-07-08 06:36:22 51°13.682 2°55.904 20.6504 3.595248 25.826921 0.095195
2005-07-08 06:36:26 51°13.682 2°55.904 20.6488 3.595248 25.826921 0.095195
2005-07-08 06:36:31 51°13.682 2°55.904 20.6505 3.595143 25.826522 0.128905
2005-07-08 06:36:36 51°13.682 2°55.904 20.6498 3.595143 25.826522 0.095195
2005-07-08 06:36:42 51°13.683 2°55.904 20.6527 3.595038 25.825683 0.095195
2005-07-08 06:36:47 51°13.683 2°55.904 20.6535 3.595143 25.826522 0.095195
2005-07-08 06:36:52 51°13.682 2°55.904 20.655 3.595143 25.826522 0.095195
2005-07-08 06:36:57 51°13.682 2°55.904 20.6551 3.595038 25.826123 0.095195
2005-07-08 06:37:02 51°13.682 2°55.904 20.6567 3.595038 25.825683 0.061486
2005-07-08 06:37:06 51°13.683 2°55.904 20.6547 3.595143 25.826522 0.095195
2005-07-08 06:37:11 51°13.683 2°55.904 20.6419 3.595038 25.825683 0.095195
2005-07-08 06:37:17 51°13.682 2°55.904 20.6513 3.595143 25.826522 0.095195
2005-07-08 06:37:22 51°13.682 2°55.904 20.6672 3.595143 25.826522 0.095195
2005-07-08 06:37:26 51°13.682 2°55.904 20.6719 3.595143 25.826961 0.095195
2005-07-08 06:37:31 51°13.682 2°55.904 20.6702 3.595038 25.826123 0.061486
2005-07-08 06:37:37 51°13.682 2°55.904 20.6686 3.595038 25.827002 0.128905
2005-07-08 06:37:42 51°13.682 2°55.905 20.6735 3.595038 25.826563 0.128905
2005-07-08 06:37:46 51°13.682 2°55.905 20.6791 3.595038 25.826123 0.061486
2005-07-08 06:37:51 51°13.682 2°55.904 20.6803 3.595038 25.826123 0.061486
2005-07-08 06:37:55 51°13.682 2°55.905 20.6803 3.595038 25.826563 0.095195
2005-07-08 06:38:02 51°13.682 2°55.905 20.6799 3.595038 25.826563 0.128905
2005-07-08 06:38:07 51°13.682 2°55.904 20.6792 3.595038 25.826563 0.061486
2005-07-08 06:38:11 51°13.682 2°55.904 20.6734 3.594932 25.825724 0.061486
2005-07-08 06:38:17 51°13.682 2°55.905 20.6751 3.595038 25.827002 0.095195
2005-07-08 06:38:21 51°13.681 2°55.905 20.6772 3.595038 25.827002 0.095195
2005-07-08 06:38:26 51°13.681 2°55.904 20.6533 3.595038 25.827002 0.061486
2005-07-08 06:38:31 51°13.682 2°55.904 20.6123 3.594932 25.826164 0.095195
2005-07-08 06:38:36 51°13.682 2°55.904 20.6603 3.594932 25.826164 0.095195
2005-07-08 06:38:42 51°13.682 2°55.901 20.6303 3.594932 25.826164 0.128905
2005-07-08 06:38:46 51°13.683 2°55.899 20.6269 3.594932 25.826604 0.061486
2005-07-08 06:38:51 51°13.684 2°55.896 20.6674 3.594932 25.826604 0.061486
2005-07-08 06:38:57 51°13.685 2°55.891 20.6601 3.594932 25.826604 0.095195
2005-07-08 06:39:02 51°13.687 2°55.887 20.6675 3.594932 25.826604 0.095195
2005-07-08 06:39:07 51°13.689 2°55.881 20.6568 3.594932 25.827043 0.095195
2005-07-08 06:39:12 51°13.69 2°55.875 20.6703 3.594932 25.827043 0.061486
2005-07-08 06:39:17 51°13.692 2°55.868 20.6698 3.594827 25.826205 0.061486
2005-07-08 06:39:22 51°13.694 2°55.862 20.6743 3.594827 25.826205 0.061486
2005-07-08 06:39:27 51°13.696 2°55.854 20.6672 3.594827 25.826205 0.095195
2005-07-08 06:39:32 51°13.698 2°55.846 20.6682 3.594827 25.826205 0.061486
2005-07-08 06:39:37 51°13.7 2°55.837 20.6651 3.594827 25.826205 0.095195
2005-07-08 06:39:42 51°13.702 2°55.829 20.6699 3.594932 25.827043 0.095195
2005-07-08 06:39:47 51°13.705 2°55.818 20.6677 3.594932 25.827483 0.061486
2005-07-08 06:39:52 51°13.707 2°55.808 20.6868 3.594932 25.827483 0.061486
2005-07-08 06:39:57 51°13.71 2°55.798 20.6829 3.594827 25.826645 0.095195
2005-07-08 06:40:02 51°13.712 2°55.788 20.6769 3.594827 25.826645 0.095195
2005-07-08 06:40:07 51°13.714 2°55.777 20.6741 3.594827 25.826645 0.095195
2005-07-08 06:40:12 51°13.715 2°55.767 20.6721 3.594827 25.826645 0.061486
2005-07-08 06:40:16 51°13.716 2°55.758 20.6524 3.594827 25.826645 0.095195
2005-07-08 06:40:22 51°13.718 2°55.748 20.6733 3.594827 25.826645 0.095195
2005-07-08 06:40:27 51°13.719 2°55.74 20.6985 3.594722 25.825806 0.095195
2005-07-08 06:40:31 51°13.72 2°55.734 20.7045 3.594827 25.826205 0.061486
2005-07-08 06:40:36 51°13.721 2°55.731 20.7153 3.594722 25.825366 0.061486
2005-07-08 06:40:42 51°13.722 2°55.73 20.7124 3.594722 25.825366 0.061486
2005-07-08 06:40:46 51°13.723 2°55.73 20.7131 3.594722 25.825806 0.095195
2005-07-08 06:40:51 51°13.725 2°55.732 20.6031 3.594722 25.825806 0.095195
2005-07-08 06:40:56 51°13.727 2°55.732 20.6661 3.594827 25.827084 0.095195
2005-07-08 06:41:02 51°13.728 2°55.732 20.654 3.594722 25.827125 0.095195
2005-07-08 06:41:06 51°13.728 2°55.731 20.652 3.594722 25.827565 0.095195
2005-07-08 06:41:11 51°13.728 2°55.729 20.6365 3.594827 25.827964 0.095195
2005-07-08 06:41:15 51°13.728 2°55.727 20.6636 3.594722 25.827125 0.095195
2005-07-08 06:41:22 51°13.726 2°55.723 20.6605 3.594722 25.827125 0.095195
2005-07-08 06:41:26 51°13.725 2°55.721 20.6699 3.594722 25.827565 0.095195
2005-07-08 06:41:32 51°13.722 2°55.716 20.6726 3.594616 25.826287 0.095195
2005-07-08 06:41:36 51°13.721 2°55.714 20.6738 3.594722 25.826686 0.061486
2005-07-08 06:41:42 51°13.719 2°55.712 20.6802 3.594722 25.826246 0.095195
2005-07-08 06:41:47 51°13.72 2°55.711 20.6764 3.594722 25.825806 0.095195
2005-07-08 06:41:51 51°13.72 2°55.711 20.6841 3.594722 25.825806 0.095195
2005-07-08 06:41:55 51°13.721 2°55.71 20.6815 3.594722 25.825806 0.061486
2005-07-08 06:42:02 51°13.722 2°55.71 20.6851 3.594722 25.826686 0.061486
2005-07-08 06:42:06 51°13.724 2°55.709 20.6925 3.594616 25.825407 0.061486
2005-07-08 06:42:11 51°13.726 2°55.708 20.6955 3.594616 25.825847 0.061486
2005-07-08 06:42:16 51°13.729 2°55.706 20.6932 3.594722 25.827565 0.061486
2005-07-08 06:42:22 51°13.733 2°55.704 20.6931 3.594722 25.827565 0.061486
2005-07-08 06:42:26 51°13.735 2°55.702 20.674 3.594722 25.827565 0.095195
2005-07-08 06:42:31 51°13.74 2°55.698 20.6912 3.594616 25.826287 0.061486
2005-07-08 06:42:35 51°13.744 2°55.696 20.69 3.594616 25.825407 0.061486
2005-07-08 06:42:42 51°13.75 2°55.691 20.6913 3.594616 25.824967 0.095195
2005-07-08 06:42:46 51°13.755 2°55.688 20.66 3.594616 25.824967 0.095195
2005-07-08 06:42:52 51°13.763 2°55.683 20.6537 3.594616 25.824967 0.095195
2005-07-08 06:42:56 51°13.769 2°55.679 20.6611 3.594616 25.824967 0.061486
2005-07-08 06:43:02 51°13.777 2°55.674 20.6652 3.594616 25.825407 0.061486
2005-07-08 06:43:06 51°13.783 2°55.67 20.6598 3.594616 25.825407 0.128905
2005-07-08 06:43:11 51°13.792 2°55.664 20.6625 3.594616 25.825847 0.061486
2005-07-08 06:43:15 51°13.799 2°55.659 20.6394 3.594722 25.827565 0.061486
2005-07-08 06:43:22 51°13.81 2°55.652 20.6453 3.594722 25.827565 0.061486
2005-07-08 06:43:26 51°13.819 2°55.647 20.6426 3.594511 25.825888 0.095195
2005-07-08 06:43:32 51°13.829 2°55.642 20.668 3.594616 25.827167 0.061486
2005-07-08 06:43:36 51°13.838 2°55.637 20.6505 3.594616 25.827606 0.095195
2005-07-08 06:43:42 51°13.848 2°55.631 20.6692 3.594511 25.826768 0.128905
2005-07-08 06:43:46 51°13.856 2°55.627 20.6714 3.594511 25.826768 0.095195
2005-07-08 06:43:51 51°13.868 2°55.621 20.6737 3.594511 25.826768 0.095195
2005-07-08 06:43:55 51°13.876 2°55.617 20.6641 3.594511 25.826768 0.061486
2005-07-08 06:44:01 51°13.889 2°55.61 20.6808 3.594511 25.826768 0.095195
2005-07-08 06:44:06 51°13.9 2°55.604 20.6866 3.594616 25.828046 0.061486
2005-07-08 06:44:11 51°13.91 2°55.598 20.6886 3.594511 25.827648 0.061486
2005-07-08 06:44:17 51°13.922 2°55.591 20.6815 3.594511 25.827208 0.061486
2005-07-08 06:44:22 51°13.933 2°55.584 20.671 3.594511 25.827208 0.061486
2005-07-08 06:44:26 51°13.941 2°55.579 20.6504 3.594406 25.826809 0.095195
2005-07-08 06:44:31 51°13.953 2°55.572 20.6558 3.594406 25.826369 0.095195
2005-07-08 06:44:37 51°13.965 2°55.564 20.6927 3.594511 25.827648 0.061486
2005-07-08 06:44:42 51°13.976 2°55.557 20.6948 3.594511 25.827648 0.095195
2005-07-08 06:44:47 51°13.986 2°55.549 20.6941 3.594406 25.827249 0.061486
2005-07-08 06:44:51 51°13.996 2°55.542 20.6866 3.594406 25.827249 0.061486
2005-07-08 06:44:57 51°14.008 2°55.532 20.6857 3.594406 25.827689 0.061486
2005-07-08 06:45:02 51°14.019 2°55.523 20.6861 3.594406 25.827249 0.095195
2005-07-08 06:45:06 51°14.028 2°55.515 20.6892 3.594406 25.826809 0.095195
2005-07-08 06:45:11 51°14.04 2°55.505 20.6894 3.594406 25.826369 0.095195
2005-07-08 06:45:17 51°14.052 2°55.494 20.6966 3.594406 25.826369 0.095195
2005-07-08 06:45:21 51°14.063 2°55.485 20.6509 3.594406 25.826369 0.095195
2005-07-08 06:45:26 51°14.074 2°55.475 20.6543 3.5943 25.82597 0.095195
2005-07-08 06:45:31 51°14.087 2°55.463 20.6648 3.594406 25.826809 0.061486
2005-07-08 06:45:36 51°14.098 2°55.453 20.6794 3.5943 25.82597 0.095195
2005-07-08 06:45:42 51°14.113 2°55.439 20.626 3.594406 25.826809 0.061486
2005-07-08 06:45:46 51°14.123 2°55.43 20.6595 3.594406 25.827249 0.095195
2005-07-08 06:45:51 51°14.137 2°55.417 20.6915 3.594406 25.827249 0.095195
2005-07-08 06:45:57 51°14.152 2°55.403 20.7036 3.5943 25.82685 0.061486
2005-07-08 06:46:01 51°14.163 2°55.391 20.6911 3.5943 25.82685 0.095195
2005-07-08 06:46:06 51°14.176 2°55.376 20.6857 3.5943 25.82729 0.095195
2005-07-08 06:46:11 51°14.189 2°55.362 20.6685 3.594195 25.826891 0.095195
2005-07-08 06:46:16 51°14.201 2°55.346 20.6956 3.5943 25.82685 0.095195
2005-07-08 06:46:22 51°14.215 2°55.329 20.7188 3.5943 25.82685 0.095195
2005-07-08 06:46:26 51°14.225 2°55.316 20.6938 3.594195 25.826011 0.095195
2005-07-08 06:46:31 51°14.237 2°55.297 20.662 3.5943 25.82729 0.061486
2005-07-08 06:46:36 51°14.249 2°55.279 20.6477 3.5943 25.82729 0.061486
2005-07-08 06:46:41 51°14.26 2°55.261 20.6891 3.594195 25.826451 0.095195
2005-07-08 06:46:46 51°14.27 2°55.244 20.6485 3.5943 25.82729 0.061486
2005-07-08 06:46:51 51°14.282 2°55.224 20.6866 3.5943 25.82729 0.061486
2005-07-08 06:46:56 51°14.292 2°55.206 20.6713 3.594195 25.826451 0.095195
2005-07-08 06:47:02 51°14.304 2°55.183 20.6558 3.5943 25.82729 0.095195
2005-07-08 06:47:06 51°14.313 2°55.167 20.668 3.594089 25.825612 0.095195
2005-07-08 06:47:11 51°14.324 2°55.146 20.6133 3.594406 25.828569 0.061486
2005-07-08 06:47:16 51°14.333 2°55.128 20.5376 3.593984 25.825213 0.095195
2005-07-08 06:47:22 51°14.345 2°55.102 20.4977 3.593984 25.825213 0.095195
2005-07-08 06:47:26 51°14.353 2°55.083 20.4913 3.5943 25.82817 0.095195
2005-07-08 06:47:31 51°14.363 2°55.063 20.46 3.594195 25.827331 0.095195
2005-07-08 06:47:35 51°14.371 2°55.046 20.4795 3.5943 25.82861 0.061486
2005-07-08 06:47:41 51°14.383 2°55.021 20.4786 3.593879 25.825254 0.095195
2005-07-08 06:47:46 51°14.392 2°55.001 20.4486 3.593984 25.826093 0.061486
2005-07-08 06:47:51 51°14.403 2°54.977 20.4515 3.593984 25.826093 0.061486
2005-07-08 06:47:56 51°14.412 2°54.955 20.4577 3.593879 25.825694 0.095195
2005-07-08 06:48:02 51°14.423 2°54.93 20.4567 3.593984 25.826533 0.095195
2005-07-08 06:48:06 51°14.431 2°54.911 20.4366 3.594195 25.827771 0.095195
2005-07-08 06:48:11 51°14.442 2°54.885 20.4476 3.593984 25.826533 0.095195
2005-07-08 06:48:16 51°14.454 2°54.861 20.4565 3.593984 25.826533 0.095195
2005-07-08 06:48:22 51°14.466 2°54.837 20.4633 3.593984 25.826533 0.095195
2005-07-08 06:48:26 51°14.475 2°54.818 20.4653 3.593984 25.826533 0.095195
2005-07-08 06:48:31 51°14.487 2°54.792 20.4814 3.593984 25.827413 0.061486
2005-07-08 06:48:37 51°14.501 2°54.765 20.4939 3.594195 25.829531 0.061486
2005-07-08 06:48:42 51°14.513 2°54.744 20.5287 3.593773 25.826175 0.095195
2005-07-08 06:48:46 51°14.524 2°54.728 20.5261 3.593773 25.826175 0.095195
2005-07-08 06:48:51 51°14.539 2°54.708 20.539 3.593773 25.826175 0.095195
2005-07-08 06:48:57 51°14.555 2°54.688 20.5771 3.593563 25.824497 0.061486
2005-07-08 06:49:01 51°14.568 2°54.673 20.5669 3.594195 25.829971 0.095195
2005-07-08 06:49:06 51°14.583 2°54.656 20.5887 3.593668 25.826216 0.095195
2005-07-08 06:49:11 51°14.598 2°54.639 20.5759 3.593563 25.825377 0.061486
2005-07-08 06:49:15 51°14.609 2°54.626 20.5788 3.593984 25.829173 0.061486
2005-07-08 06:49:21 51°14.627 2°54.605 20.6009 3.593984 25.829173 0.061486
2005-07-08 06:49:26 51°14.64 2°54.589 20.5805 3.593563 25.826697 0.095195
2005-07-08 06:49:31 51°14.656 2°54.57 20.6014 3.593457 25.825418 0.061486
2005-07-08 06:49:37 51°14.672 2°54.55 20.6003 3.593773 25.828375 0.095195
2005-07-08 06:49:42 51°14.686 2°54.534 20.6174 3.593352 25.825459 0.061486
2005-07-08 06:49:46 51°14.7 2°54.519 20.6318 3.593563 25.827137 0.095195
2005-07-08 06:49:52 51°14.716 2°54.501 20.6468 3.593563 25.827137 0.095195
2005-07-08 06:49:56 51°14.729 2°54.488 20.6338 3.593457 25.826738 0.095195
2005-07-08 06:50:01 51°14.744 2°54.471 20.6414 3.593247 25.82462 0.061486
2005-07-08 06:50:06 51°14.76 2°54.456 20.6602 3.593773 25.830136 0.061486
2005-07-08 06:50:11 51°14.775 2°54.44 20.6896 3.593352 25.82678 0.095195
2005-07-08 06:50:15 51°14.787 2°54.428 20.6653 3.593141 25.825541 0.095195
2005-07-08 06:50:22 51°14.807 2°54.407 20.6629 3.593141 25.825541 0.095195
2005-07-08 06:50:26 51°14.819 2°54.395 20.681 3.593352 25.826339 0.061486
2005-07-08 06:50:31 51°14.834 2°54.379 20.6662 3.592931 25.824303 0.095195
2005-07-08 06:50:37 51°14.852 2°54.36 20.6831 3.593247 25.826821 0.095195
2005-07-08 06:50:42 51°14.868 2°54.345 20.6902 3.593141 25.825541 0.061486
2005-07-08 06:50:46 51°14.88 2°54.333 20.6854 3.593247 25.827261 0.061486
2005-07-08 06:50:51 51°14.895 2°54.318 20.6807 3.593247 25.827261 0.061486
2005-07-08 06:50:56 51°14.912 2°54.302 20.6779 3.593141 25.826422 0.095195
2005-07-08 06:51:02 51°14.929 2°54.286 20.7005 3.59272 25.823945 0.128905
2005-07-08 06:51:06 51°14.942 2°54.274 20.6718 3.593457 25.829379 0.061486
2005-07-08 06:51:11 51°14.957 2°54.259 20.6819 3.593247 25.829022 0.095195
2005-07-08 06:51:17 51°14.974 2°54.242 20.7113 3.592615 25.823546 0.061486
2005-07-08 06:51:21 51°14.988 2°54.229 20.6933 3.592615 25.823546 0.061486
2005-07-08 06:51:27 51°15.004 2°54.212 20.6959 3.593352 25.82898 0.095195
2005-07-08 06:51:31 51°15.017 2°54.198 20.7083 3.592931 25.826504 0.095195
2005-07-08 06:51:35 51°15.029 2°54.186 20.7026 3.592931 25.826504 0.095195
2005-07-08 06:51:41 51°15.046 2°54.167 20.7017 3.592931 25.827384 0.095195
2005-07-08 06:51:46 51°15.061 2°54.151 20.7394 3.592615 25.824867 0.061486
2005-07-08 06:51:51 51°15.076 2°54.135 20.7146 3.592615 25.824867 0.061486
2005-07-08 06:51:57 51°15.092 2°54.119 20.7202 3.592825 25.826985 0.095195
2005-07-08 06:52:02 51°15.107 2°54.103 20.7532 3.592088 25.821991 0.061486
2005-07-08 06:52:07 51°15.122 2°54.088 20.7649 3.592509 25.824908 0.095195
2005-07-08 06:52:11 51°15.136 2°54.075 20.7635 3.592509 25.825788 0.095195
2005-07-08 06:52:17 51°15.153 2°54.059 20.7809 3.592404 25.824949 0.061486
2005-07-08 06:52:22 51°15.168 2°54.044 20.7737 3.592404 25.824949 0.061486
2005-07-08 06:52:26 51°15.182 2°54.03 20.782 3.592509 25.825788 0.095195
2005-07-08 06:52:32 51°15.199 2°54.013 20.7643 3.592404 25.825389 0.095195
2005-07-08 06:52:36 51°15.211 2°54.001 20.7729 3.592193 25.824591 0.128905
2005-07-08 06:52:41 51°15.228 2°53.982 20.7866 3.592088 25.823752 0.061486
2005-07-08 06:52:46 51°15.241 2°53.967 20.778 3.591983 25.823793 0.095195
2005-07-08 06:52:51 51°15.258 2°53.949 20.7739 3.591983 25.823793 0.095195
2005-07-08 06:52:56 51°15.271 2°53.933 20.7872 3.592299 25.826751 0.095195
2005-07-08 06:53:01 51°15.288 2°53.914 20.7756 3.592088 25.825073 0.095195
2005-07-08 06:53:06 51°15.302 2°53.897 20.7892 3.591666 25.822596 0.095195
2005-07-08 06:53:11 51°15.317 2°53.88 20.7919 3.591983 25.825114 0.095195
2005-07-08 06:53:17 51°15.334 2°53.862 20.7811 3.592088 25.825953 0.095195
2005-07-08 06:53:22 51°15.349 2°53.845 20.7928 3.592088 25.825953 0.095195
2005-07-08 06:53:26 51°15.363 2°53.83 20.788 3.591666 25.823476 0.095195
2005-07-08 06:53:31 51°15.378 2°53.814 20.7918 3.591983 25.825994 0.095195
2005-07-08 06:53:36 51°15.394 2°53.798 20.7969 3.591877 25.825595 0.061486
2005-07-08 06:53:42 51°15.411 2°53.78 20.7984 3.591666 25.824797 0.061486
2005-07-08 06:53:46 51°15.425 2°53.765 20.7853 3.591772 25.825637 0.095195
2005-07-08 06:53:51 51°15.439 2°53.751 20.8018 3.591772 25.825637 0.095195
2005-07-08 06:53:55 51°15.453 2°53.737 20.7874 3.591034 25.820641 0.095195
2005-07-08 06:54:02 51°15.473 2°53.715 20.784 3.592088 25.829036 0.095195
2005-07-08 06:54:06 51°15.485 2°53.702 20.8 3.59135 25.82404 0.061486
2005-07-08 06:54:11 51°15.502 2°53.683 20.7847 3.591561 25.825279 0.095195
2005-07-08 06:54:15 51°15.513 2°53.671 20.7975 3.591667 25.826559 0.095195
2005-07-08 06:54:22 51°15.534 2°53.647 20.7939 3.591667 25.826559 0.095195
2005-07-08 06:54:26 51°15.547 2°53.632 20.7977 3.59114 25.822802 0.061486
2005-07-08 06:54:31 51°15.561 2°53.616 20.7967 3.591245 25.824081 0.061486
2005-07-08 06:54:37 51°15.578 2°53.597 20.7988 3.59114 25.823242 0.095195
2005-07-08 06:54:41 51°15.592 2°53.581 20.8056 3.591561 25.8266 0.095195
2005-07-08 06:54:46 51°15.608 2°53.564 20.797 3.590718 25.820765 0.095195
2005-07-08 06:54:51 51°15.623 2°53.548 20.8033 3.590718 25.820765 0.095195
2005-07-08 06:54:55 51°15.635 2°53.535 20.8195 3.590929 25.822884 0.061486
2005-07-08 06:55:01 51°15.653 2°53.514 20.8031 3.59114 25.824563 0.061486
2005-07-08 06:55:06 51°15.668 2°53.498 20.8212 3.590297 25.819168 0.061486
2005-07-08 06:55:12 51°15.684 2°53.48 20.8167 3.590824 25.822925 0.095195
2005-07-08 06:55:16 51°15.697 2°53.467 20.8132 3.590824 25.823366 0.061486
2005-07-08 06:55:21 51°15.713 2°53.449 20.8227 3.590824 25.823366 0.061486
2005-07-08 06:55:26 51°15.727 2°53.435 20.8163 3.590402 25.820448 0.095195
2005-07-08 06:55:31 51°15.742 2°53.419 20.8228 3.590508 25.821287 0.095195
2005-07-08 06:55:37 51°15.761 2°53.401 20.8179 3.590613 25.822567 0.128905
2005-07-08 06:55:42 51°15.777 2°53.385 20.8213 3.590718 25.823407 0.061486
2005-07-08 06:55:46 51°15.789 2°53.373 20.8155 3.590508 25.822609 0.095195
2005-07-08 06:55:51 51°15.806 2°53.357 20.831 3.590508 25.822609 0.095195
2005-07-08 06:55:57 51°15.824 2°53.34 20.822 3.590086 25.820131 0.095195
2005-07-08 06:56:02 51°15.839 2°53.324 20.82 3.590402 25.822209 0.061486
2005-07-08 06:56:06 51°15.851 2°53.312 20.8314 3.590086 25.820571 0.061486
2005-07-08 06:56:11 51°15.868 2°53.296 20.8225 3.590402 25.82309 0.061486
2005-07-08 06:56:17 51°15.887 2°53.278 20.8383 3.590297 25.822691 0.095195
2005-07-08 06:56:22 51°15.901 2°53.264 20.8366 3.590297 25.822691 0.095195
2005-07-08 06:56:26 51°15.915 2°53.251 20.828 3.590297 25.823572 0.095195
2005-07-08 06:56:31 51°15.931 2°53.235 20.8456 3.58977 25.819374 0.061486
2005-07-08 06:56:36 51°15.947 2°53.22 20.817 3.590297 25.823132 0.061486
2005-07-08 06:56:42 51°15.962 2°53.204 20.8192 3.589349 25.818217 0.061486
2005-07-08 06:56:46 51°15.975 2°53.193 20.8318 3.590508 25.825251 0.095195
2005-07-08 06:56:51 51°15.991 2°53.176 20.8359 3.590508 25.825251 0.095195
2005-07-08 06:56:56 51°16.007 2°53.161 20.8289 3.589665 25.819855 0.095195
2005-07-08 06:57:01 51°16.022 2°53.146 20.843 3.590086 25.822333 0.061486
2005-07-08 06:57:06 51°16.036 2°53.133 20.8481 3.589876 25.821094 0.061486
2005-07-08 06:57:11 51°16.053 2°53.116 20.8272 3.589559 25.819016 0.095195
2005-07-08 06:57:16 51°16.068 2°53.102 20.8463 3.589981 25.821934 0.061486
2005-07-08 06:57:22 51°16.086 2°53.085 20.841 3.589981 25.821934 0.061486
2005-07-08 06:57:26 51°16.098 2°53.074 20.8501 3.589454 25.819497 0.095195
2005-07-08 06:57:31 51°16.115 2°53.057 20.8439 3.58977 25.822016 0.095195
2005-07-08 06:57:36 51°16.13 2°53.044 20.8502 3.588927 25.815298 0.128905
2005-07-08 06:57:41 51°16.146 2°53.029 20.8676 3.590086 25.824095 0.095195
2005-07-08 06:57:46 51°16.163 2°53.016 20.8549 3.589033 25.8179 0.095195
2005-07-08 06:57:51 51°16.178 2°53.003 20.8563 3.589033 25.8179 0.095195
2005-07-08 06:57:56 51°16.192 2°52.992 20.8596 3.589454 25.820378 0.095195
2005-07-08 06:58:02 51°16.212 2°52.977 20.8629 3.589243 25.81958 0.095195
2005-07-08 06:58:06 51°16.225 2°52.967 20.8587 3.589138 25.81874 0.095195
2005-07-08 06:58:10 51°16.238 2°52.957 20.8665 3.589033 25.818781 0.095195
2005-07-08 06:58:15 51°16.256 2°52.944 20.8647 3.589138 25.819621 0.095195
2005-07-08 06:58:22 51°16.277 2°52.929 20.8677 3.589138 25.819621 0.095195
2005-07-08 06:58:26 51°16.291 2°52.92 20.8749 3.588927 25.818382 0.095195
2005-07-08 06:58:31 51°16.308 2°52.91 20.8533 3.588822 25.817982 0.061486
2005-07-08 06:58:36 51°16.326 2°52.899 20.855 3.588295 25.814224 0.095195
2005-07-08 06:58:42 51°16.345 2°52.889 20.8663 3.589138 25.820943 0.095195
2005-07-08 06:58:46 51°16.361 2°52.881 20.8694 3.588295 25.815545 0.095195
2005-07-08 06:58:51 51°16.377 2°52.872 20.8634 3.588295 25.815545 0.095195
2005-07-08 06:58:56 51°16.395 2°52.862 20.8723 3.588611 25.818065 0.095195
2005-07-08 06:59:01 51°16.412 2°52.853 20.8664 3.588611 25.818506 0.095195
2005-07-08 06:59:06 51°16.427 2°52.845 20.8731 3.588295 25.816867 0.095195
2005-07-08 06:59:11 51°16.446 2°52.835 20.8741 3.588506 25.818106 0.095195
2005-07-08 06:59:16 51°16.463 2°52.826 20.8751 3.588506 25.818987 0.061486
2005-07-08 06:59:22 51°16.481 2°52.817 20.8797 3.588506 25.818987 0.061486
2005-07-08 06:59:26 51°16.497 2°52.809 20.8683 3.58819 25.816468 0.061486
2005-07-08 06:59:31 51°16.513 2°52.8 20.8714 3.588506 25.818987 0.095195
2005-07-08 06:59:35 51°16.527 2°52.793 20.8812 3.588401 25.819029 0.095195
2005-07-08 06:59:41 51°16.548 2°52.783 20.8782 3.588295 25.817748 0.128905
2005-07-08 06:59:46 51°16.565 2°52.775 20.8722 3.587979 25.816109 0.095195
2005-07-08 06:59:51 51°16.582 2°52.766 20.8864 3.587979 25.816109 0.095195
2005-07-08 06:59:55 51°16.595 2°52.759 20.8752 3.587874 25.815269 0.061486
2005-07-08 07:00:01 51°16.615 2°52.748 20.8861 3.588085 25.817831 0.095195
2005-07-08 07:00:06 51°16.631 2°52.741 20.8807 3.588085 25.817831 0.095195
2005-07-08 07:00:11 51°16.648 2°52.732 20.8937 3.587874 25.816591 0.061486
2005-07-08 07:00:16 51°16.667 2°52.724 20.8929 3.587452 25.813672 0.095195
2005-07-08 07:00:21 51°16.684 2°52.717 20.8969 3.587452 25.813672 0.095195
2005-07-08 07:00:26 51°16.701 2°52.711 20.8936 3.587558 25.814512 0.061486
2005-07-08 07:00:31 51°16.719 2°52.705 20.8937 3.587663 25.815352 0.095195
2005-07-08 07:00:36 51°16.734 2°52.699 20.894 3.587663 25.816233 0.095195
2005-07-08 07:00:42 51°16.755 2°52.694 20.8912 3.587663 25.816674 0.095195
2005-07-08 07:00:46 51°16.769 2°52.689 20.89 3.587663 25.817115 0.095195
2005-07-08 07:00:51 51°16.787 2°52.683 20.8884 3.587663 25.817115 0.095195
2005-07-08 07:00:55 51°16.8 2°52.679 20.8909 3.587136 25.813795 0.095195
2005-07-08 07:01:02 51°16.823 2°52.67 20.8817 3.587242 25.814636 0.061486
2005-07-08 07:01:06 51°16.839 2°52.665 20.8992 3.587453 25.817197 0.095195
2005-07-08 07:01:11 51°16.854 2°52.66 20.889 3.587242 25.815517 0.061486
2005-07-08 07:01:16 51°16.873 2°52.652 20.8915 3.587347 25.816357 0.061486
2005-07-08 07:01:22 51°16.891 2°52.646 20.9025 3.587347 25.816357 0.061486
2005-07-08 07:01:26 51°16.905 2°52.641 20.8966 3.586715 25.811757 0.095195
2005-07-08 07:01:31 51°16.924 2°52.634 20.9005 3.587242 25.815958 0.061486
2005-07-08 07:01:35 51°16.938 2°52.629 20.8996 3.587136 25.815558 0.095195
2005-07-08 07:01:42 51°16.96 2°52.621 20.8994 3.587031 25.815599 0.095195
2005-07-08 07:01:46 51°16.976 2°52.616 20.9112 3.586715 25.813079 0.095195
2005-07-08 07:01:51 51°16.993 2°52.609 20.9056 3.586715 25.813079 0.095195
2005-07-08 07:01:56 51°17.011 2°52.603 20.9064 3.587031 25.81604 0.095195
2005-07-08 07:02:02 51°17.03 2°52.596 20.9146 3.58661 25.81312 0.095195
2005-07-08 07:02:06 51°17.044 2°52.592 20.9137 3.58661 25.813561 0.061486
2005-07-08 07:02:12 51°17.064 2°52.584 20.9041 3.58661 25.814002 0.061486
2005-07-08 07:02:16 51°17.078 2°52.58 20.9131 3.58661 25.813561 0.061486
2005-07-08 07:02:22 51°17.099 2°52.572 20.9077 3.58661 25.813561 0.061486
2005-07-08 07:02:26 51°17.114 2°52.567 20.9089 3.586399 25.813203 0.061486
2005-07-08 07:02:31 51°17.131 2°52.561 20.9171 3.586188 25.812844 0.095195
2005-07-08 07:02:36 51°17.148 2°52.554 20.9127 3.58661 25.815324 0.095195
2005-07-08 07:02:42 51°17.167 2°52.548 20.912 3.586188 25.812844 0.061486
2005-07-08 07:02:46 51°17.181 2°52.543 20.9158 3.586083 25.811563 0.061486
2005-07-08 07:02:52 51°17.202 2°52.535 20.921 3.586083 25.811563 0.061486
2005-07-08 07:02:56 51°17.217 2°52.529 20.9109 3.586083 25.812445 0.061486
2005-07-08 07:03:02 51°17.235 2°52.522 20.9199 3.585767 25.809924 0.061486
2005-07-08 07:03:06 51°17.252 2°52.516 20.9168 3.586504 25.815806 0.095195
2005-07-08 07:03:11 51°17.268 2°52.51 20.9184 3.585345 25.807885 0.095195
2005-07-08 07:03:17 51°17.287 2°52.504 20.9155 3.586083 25.813327 0.095195
2005-07-08 07:03:22 51°17.304 2°52.498 20.9256 3.586083 25.813327 0.095195
2005-07-08 07:03:26 51°17.318 2°52.493 20.9199 3.585556 25.809566 0.095195
2005-07-08 07:03:31 51°17.337 2°52.486 20.9169 3.586083 25.813327 0.061486
2005-07-08 07:03:36 51°17.354 2°52.479 20.9196 3.585662 25.811728 0.061486
2005-07-08 07:03:42 51°17.373 2°52.472 20.926 3.586188 25.815049 0.095195
2005-07-08 07:03:46 51°17.387 2°52.467 20.9294 3.585451 25.810048 0.095195
2005-07-08 07:03:51 51°17.406 2°52.46 20.9311 3.585451 25.810048 0.095195
2005-07-08 07:03:55 51°17.42 2°52.455 20.926 3.585556 25.810888 0.095195
2005-07-08 07:04:01 51°17.44 2°52.447 20.9266 3.585556 25.811329 0.061486
2005-07-08 07:04:06 51°17.455 2°52.442 20.9336 3.585556 25.811329 0.061486
2005-07-08 07:04:11 51°17.475 2°52.434 20.9363 3.585135 25.808408 0.061486
2005-07-08 07:04:16 51°17.492 2°52.428 20.93 3.585346 25.810971 0.061486
2005-07-08 07:04:22 51°17.51 2°52.421 20.9347 3.585346 25.810971 0.061486
2005-07-08 07:04:26 51°17.524 2°52.415 20.9341 3.585029 25.80889 0.061486
2005-07-08 07:04:31 51°17.543 2°52.408 20.9366 3.585346 25.811411 0.061486
2005-07-08 07:04:37 51°17.562 2°52.401 20.9421 3.585135 25.810171 0.061486
2005-07-08 07:04:42 51°17.579 2°52.394 20.9351 3.585029 25.809772 0.061486
2005-07-08 07:04:46 51°17.593 2°52.388 20.9381 3.585346 25.812734 0.095195
2005-07-08 07:04:51 51°17.611 2°52.381 20.9373 3.585346 25.812734 0.095195
2005-07-08 07:04:56 51°17.629 2°52.374 20.9426 3.585135 25.811053 0.095195
2005-07-08 07:05:02 51°17.648 2°52.367 20.9426 3.584819 25.809413 0.095195
2005-07-08 07:05:06 51°17.662 2°52.361 20.9432 3.584819 25.809413 0.095195
2005-07-08 07:05:11 51°17.679 2°52.354 20.9502 3.584924 25.811136 0.095195
2005-07-08 07:05:16 51°17.698 2°52.348 20.9468 3.584924 25.811136 0.095195
2005-07-08 07:05:22 51°17.716 2°52.344 20.9572 3.584924 25.811136 0.095195
2005-07-08 07:05:26 51°17.73 2°52.343 20.9632 3.584081 25.804412 0.095195
2005-07-08 07:05:31 51°17.749 2°52.342 20.9621 3.584819 25.810295 0.095195
2005-07-08 07:05:36 51°17.766 2°52.344 20.9661 3.584397 25.806933 0.095195
2005-07-08 07:05:42 51°17.785 2°52.346 20.963 3.584292 25.806974 0.095195
2005-07-08 07:05:46 51°17.798 2°52.348 20.9651 3.584713 25.810777 0.061486
2005-07-08 07:05:51 51°17.817 2°52.351 20.9654 3.584713 25.810777 0.061486
2005-07-08 07:05:56 51°17.833 2°52.354 20.9681 3.584397 25.809579 0.095195
2005-07-08 07:06:02 51°17.852 2°52.358 20.9663 3.584187 25.808338 0.095195
2005-07-08 07:06:06 51°17.866 2°52.36 20.969 3.584292 25.80962 0.095195
2005-07-08 07:06:11 51°17.884 2°52.363 20.9705 3.584292 25.809179 0.061486
2005-07-08 07:06:16 51°17.901 2°52.366 20.9739 3.584187 25.808779 0.061486
2005-07-08 07:06:21 51°17.918 2°52.369 20.9727 3.584187 25.808779 0.061486
2005-07-08 07:06:27 51°17.936 2°52.372 20.97 3.584397 25.811343 0.061486
2005-07-08 07:06:31 51°17.952 2°52.375 20.9798 3.583449 25.804218 0.061486
2005-07-08 07:06:36 51°17.969 2°52.378 20.9773 3.584397 25.810902 0.061486
2005-07-08 07:06:42 51°17.988 2°52.381 20.9808 3.583765 25.807181 0.095195
2005-07-08 07:06:46 51°18.001 2°52.384 20.9796 3.583765 25.807181 0.061486
2005-07-08 07:06:51 51°18.02 2°52.387 20.9806 3.583765 25.807181 0.061486
2005-07-08 07:06:55 51°18.033 2°52.389 20.9793 3.583871 25.807139 0.095195
2005-07-08 07:07:01 51°18.053 2°52.393 20.9797 3.583871 25.808021 0.095195
2005-07-08 07:07:06 51°18.07 2°52.396 20.9812 3.583871 25.808903 0.095195
2005-07-08 07:07:12 51°18.089 2°52.399 20.9857 3.583765 25.807622 0.061486
2005-07-08 07:07:16 51°18.103 2°52.401 20.9894 3.583449 25.805982 0.061486
2005-07-08 07:07:22 51°18.123 2°52.405 20.9888 3.583449 25.805982 0.061486
2005-07-08 07:07:26 51°18.137 2°52.407 20.9864 3.583555 25.807263 0.061486
2005-07-08 07:07:31 51°18.155 2°52.409 20.9884 3.583344 25.805582 0.061486
2005-07-08 07:07:36 51°18.173 2°52.411 20.9859 3.583449 25.806423 0.095195
2005-07-08 07:07:41 51°18.189 2°52.413 20.9915 3.583555 25.808145 0.061486
2005-07-08 07:07:46 51°18.204 2°52.415 20.9955 3.582712 25.80186 0.061486
2005-07-08 07:07:51 51°18.223 2°52.417 20.9943 3.582712 25.80186 0.061486
2005-07-08 07:07:56 51°18.24 2°52.419 20.9909 3.583344 25.807346 0.095195
2005-07-08 07:08:01 51°18.255 2°52.42 20.9963 3.583133 25.804782 0.061486
2005-07-08 07:08:07 51°18.275 2°52.423 20.9939 3.583344 25.806905 0.095195
2005-07-08 07:08:11 51°18.29 2°52.424 20.9945 3.583449 25.807305 0.061486
2005-07-08 07:08:16 51°18.307 2°52.426 21 3.583028 25.804383 0.061486
2005-07-08 07:08:22 51°18.326 2°52.428 21.0034 3.583028 25.804383 0.061486
2005-07-08 07:08:27 51°18.343 2°52.429 20.9959 3.583028 25.805265 0.095195
2005-07-08 07:08:31 51°18.357 2°52.431 21.0017 3.582817 25.804024 0.095195
2005-07-08 07:08:36 51°18.373 2°52.433 21.0031 3.583239 25.807828 0.061486
2005-07-08 07:08:41 51°18.39 2°52.435 21.0076 3.583028 25.806147 0.061486
2005-07-08 07:08:46 51°18.406 2°52.437 21.0033 3.58229 25.802025 0.095195
2005-07-08 07:08:51 51°18.422 2°52.439 21.0085 3.58229 25.802025 0.095195
2005-07-08 07:08:55 51°18.436 2°52.441 21.0117 3.582712 25.804065 0.095195
2005-07-08 07:09:01 51°18.457 2°52.443 21.0089 3.583028 25.806147 0.061486
2005-07-08 07:09:07 51°18.475 2°52.445 21.0083 3.582396 25.801102 0.061486
2005-07-08 07:09:11 51°18.489 2°52.447 21.0074 3.582712 25.804947 0.095195
2005-07-08 07:09:16 51°18.506 2°52.448 21.0116 3.582606 25.803666 0.061486
2005-07-08 07:09:22 51°18.524 2°52.451 21.0427 3.582606 25.803666 0.061486
2005-07-08 07:09:26 51°18.539 2°52.452 21.0485 3.582712 25.804065 0.095195
2005-07-08 07:09:32 51°18.557 2°52.454 21.0408 3.58229 25.801584 0.027777
2005-07-08 07:09:36 51°18.573 2°52.455 21.0411 3.582712 25.804947 0.061486
2005-07-08 07:09:42 51°18.59 2°52.458 21.042 3.581974 25.799944 0.095195
2005-07-08 07:09:46 51°18.606 2°52.459 21.0516 3.582185 25.802066 0.061486
2005-07-08 07:09:51 51°18.622 2°52.46 21.0539 3.582185 25.802066 0.061486
2005-07-08 07:09:56 51°18.639 2°52.462 21.0595 3.582606 25.80543 0.095195
2005-07-08 07:10:01 51°18.656 2°52.464 21.0565 3.58229 25.802907 0.095195
2005-07-08 07:10:06 51°18.673 2°52.466 21.0554 3.58208 25.801667 0.095195
2005-07-08 07:10:11 51°18.689 2°52.467 21.0572 3.581974 25.801267 0.061486
2005-07-08 07:10:16 51°18.706 2°52.469 21.0553 3.58229 25.80423 0.061486
2005-07-08 07:10:22 51°18.725 2°52.47 21.0562 3.58229 25.80423 0.061486
2005-07-08 07:10:26 51°18.738 2°52.471 21.0565 3.582185 25.802948 0.095195
2005-07-08 07:10:31 51°18.756 2°52.473 21.057 3.581869 25.801308 0.095195
2005-07-08 07:10:36 51°18.773 2°52.475 21.0652 3.582185 25.803389 0.061486
2005-07-08 07:10:42 51°18.792 2°52.476 21.0688 3.58208 25.802108 0.095195
2005-07-08 07:10:46 51°18.807 2°52.477 21.0678 3.58229 25.80423 0.095195
2005-07-08 07:10:52 51°18.825 2°52.479 21.0701 3.58229 25.80423 0.095195
2005-07-08 07:10:56 51°18.838 2°52.48 21.0691 3.581448 25.797944 0.061486
2005-07-08 07:11:02 51°18.859 2°52.48 21.0653 3.582185 25.803831 0.061486
2005-07-08 07:11:06 51°18.872 2°52.481 21.0669 3.581658 25.800067 0.095195
2005-07-08 07:11:12 51°18.892 2°52.481 21.0755 3.582396 25.805512 0.061486
2005-07-08 07:11:16 51°18.907 2°52.482 21.0714 3.581869 25.80219 0.095195
2005-07-08 07:11:22 51°18.925 2°52.481 21.0854 3.581869 25.80219 0.095195
2005-07-08 07:11:26 51°18.939 2°52.482 21.0784 3.581448 25.799267 0.095195
2005-07-08 07:11:31 51°18.957 2°52.482 21.0817 3.582185 25.804272 0.095195
2005-07-08 07:11:36 51°18.974 2°52.482 21.0863 3.581974 25.803472 0.095195
2005-07-08 07:11:42 51°18.993 2°52.482 21.0833 3.581448 25.799267 0.061486
2005-07-08 07:11:46 51°19.008 2°52.482 21.0883 3.581658 25.800949 0.095195
2005-07-08 07:11:51 51°19.025 2°52.482 21.0854 3.581658 25.800949 0.095195
2005-07-08 07:11:56 51°19.042 2°52.482 21.092 3.581448 25.799708 0.095195
2005-07-08 07:12:02 51°19.061 2°52.482 21.097 3.581342 25.799309 0.095195
2005-07-08 07:12:06 51°19.075 2°52.483 21.0896 3.581658 25.80139 0.061486
2005-07-08 07:12:12 51°19.095 2°52.483 21.0998 3.581448 25.800591 0.061486
2005-07-08 07:12:17 51°19.112 2°52.484 21.0929 3.581132 25.798068 0.061486
2005-07-08 07:12:22 51°19.129 2°52.484 21.1015 3.581132 25.798068 0.061486
2005-07-08 07:12:27 51°19.146 2°52.485 21.0976 3.581342 25.79975 0.095195
2005-07-08 07:12:32 51°19.163 2°52.485 21.1031 3.581764 25.803555 0.061486
2005-07-08 07:12:36 51°19.176 2°52.486 21.0995 3.581342 25.800191 0.061486
2005-07-08 07:12:41 51°19.195 2°52.486 21.1153 3.581237 25.799791 0.095195
2005-07-08 07:12:46 51°19.212 2°52.486 21.1117 3.581342 25.800632 0.061486
2005-07-08 07:12:51 51°19.227 2°52.486 21.1096 3.581342 25.800632 0.061486
2005-07-08 07:12:56 51°19.245 2°52.488 21.1143 3.581237 25.79935 0.061486
2005-07-08 07:13:02 51°19.264 2°52.489 21.1127 3.581764 25.803996 0.095195
2005-07-08 07:13:06 51°19.277 2°52.489 21.1122 3.581237 25.79935 0.061486
2005-07-08 07:13:12 51°19.297 2°52.489 21.1125 3.581237 25.800232 0.095195
2005-07-08 07:13:16 51°19.312 2°52.489 21.1136 3.581342 25.801073 0.095195
2005-07-08 07:13:21 51°19.329 2°52.489 21.1196 3.581342 25.801073 0.095195
2005-07-08 07:13:26 51°19.346 2°52.49 21.1205 3.580921 25.79815 0.095195
2005-07-08 07:13:32 51°19.365 2°52.49 21.1194 3.581342 25.800632 0.061486
2005-07-08 07:13:36 51°19.38 2°52.49 21.1209 3.580921 25.79815 0.061486
2005-07-08 07:13:42 51°19.398 2°52.491 21.1265 3.581237 25.800673 0.061486
2005-07-08 07:13:46 51°19.414 2°52.491 21.1254 3.581026 25.799432 0.061486
2005-07-08 07:13:51 51°19.431 2°52.491 21.1237 3.581026 25.799432 0.061486
2005-07-08 07:13:57 51°19.449 2°52.491 21.1278 3.581026 25.799432 0.095195
2005-07-08 07:14:01 51°19.464 2°52.491 21.1264 3.580394 25.795268 0.095195
2005-07-08 07:14:06 51°19.479 2°52.492 21.126 3.581132 25.800714 0.061486
2005-07-08 07:14:11 51°19.498 2°52.492 21.1302 3.580605 25.797391 0.061486
2005-07-08 07:14:16 51°19.515 2°52.493 21.1344 3.580921 25.799032 0.061486
2005-07-08 07:14:22 51°19.534 2°52.493 21.131 3.580921 25.799032 0.061486
2005-07-08 07:14:26 51°19.547 2°52.492 21.1398 3.580816 25.798632 0.095195
2005-07-08 07:14:31 51°19.566 2°52.493 21.139 3.580816 25.798632 0.061486
2005-07-08 07:14:36 51°19.582 2°52.493 21.136 3.580605 25.797391 0.128905
2005-07-08 07:14:42 51°19.601 2°52.493 21.1396 3.581132 25.801597 0.095195
2005-07-08 07:14:47 51°19.617 2°52.492 21.1421 3.580605 25.797832 0.095195
2005-07-08 07:14:51 51°19.633 2°52.493 21.1439 3.580605 25.797832 0.095195
2005-07-08 07:14:55 51°19.646 2°52.493 21.1472 3.580605 25.798274 0.095195
2005-07-08 07:15:01 51°19.667 2°52.494 21.1441 3.581237 25.802438 0.061486
2005-07-08 07:15:06 51°19.683 2°52.494 21.1499 3.580078 25.794509 0.027777
2005-07-08 07:15:11 51°19.697 2°52.495 21.1564 3.581342 25.803279 0.061486
2005-07-08 07:15:16 51°19.714 2°52.496 21.1543 3.580394 25.797474 0.095195
2005-07-08 07:15:21 51°19.732 2°52.496 21.1276 3.580394 25.797474 0.095195
2005-07-08 07:15:26 51°19.749 2°52.496 21.1331 3.580921 25.800797 0.061486
2005-07-08 07:15:31 51°19.766 2°52.497 21.1343 3.58071 25.799115 0.061486
2005-07-08 07:15:37 51°19.786 2°52.496 21.1354 3.580605 25.798274 0.061486
2005-07-08 07:15:41 51°19.8 2°52.497 21.1414 3.580816 25.800397 0.061486
2005-07-08 07:15:46 51°19.816 2°52.497 21.1404 3.580605 25.799156 0.061486
2005-07-08 07:15:51 51°19.834 2°52.497 21.1484 3.580605 25.799156 0.061486
2005-07-08 07:15:56 51°19.849 2°52.497 21.1436 3.580499 25.797874 0.061486
2005-07-08 07:16:02 51°19.87 2°52.497 21.1436 3.58071 25.799556 0.095195
2005-07-08 07:16:06 51°19.883 2°52.497 21.1483 3.580078 25.795392 0.061486
2005-07-08 07:16:11 51°19.902 2°52.497 21.1536 3.580816 25.800397 0.095195
2005-07-08 07:16:15 51°19.913 2°52.498 21.1472 3.580394 25.797474 0.061486
2005-07-08 07:16:22 51°19.937 2°52.499 21.1503 3.580394 25.797474 0.061486
2005-07-08 07:16:26 51°19.951 2°52.499 21.149 3.579973 25.79455 0.095195
2005-07-08 07:16:31 51°19.969 2°52.5 21.1571 3.580289 25.797956 0.061486
2005-07-08 07:16:36 51°19.986 2°52.5 21.1526 3.581026 25.80252 0.061486
2005-07-08 07:16:42 51°20.004 2°52.5 21.158 3.580605 25.80048 0.061486
2005-07-08 07:16:47 51°20.021 2°52.501 21.1602 3.580394 25.798356 0.095195
2005-07-08 07:16:51 51°20.036 2°52.501 21.1613 3.580394 25.798356 0.095195
2005-07-08 07:16:56 51°20.053 2°52.501 21.1609 3.580394 25.799238 0.095195
2005-07-08 07:17:02 51°20.071 2°52.501 21.1596 3.580394 25.798797 0.095195
2005-07-08 07:17:06 51°20.087 2°52.502 21.1617 3.580289 25.797515 0.061486
2005-07-08 07:17:11 51°20.104 2°52.502 21.1644 3.580394 25.798356 0.061486
2005-07-08 07:17:16 51°20.121 2°52.503 21.1648 3.580078 25.796715 0.061486
2005-07-08 07:17:22 51°20.139 2°52.503 21.1641 3.580078 25.796715 0.061486
2005-07-08 07:17:27 51°20.156 2°52.504 21.1672 3.580394 25.798797 0.095195
2005-07-08 07:17:32 51°20.173 2°52.505 21.1701 3.579867 25.795474 0.095195
2005-07-08 07:17:36 51°20.187 2°52.504 21.1699 3.580394 25.79968 0.095195
2005-07-08 07:17:42 51°20.207 2°52.504 21.1709 3.580183 25.797997 0.095195
2005-07-08 07:17:46 51°20.221 2°52.505 21.1694 3.580078 25.797597 0.095195
2005-07-08 07:17:51 51°20.24 2°52.505 21.1727 3.580078 25.797597 0.095195
2005-07-08 07:17:56 51°20.255 2°52.505 21.1727 3.5805 25.800962 0.095195
2005-07-08 07:18:01 51°20.274 2°52.505 21.1726 3.580289 25.799721 0.061486
2005-07-08 07:18:06 51°20.288 2°52.505 21.1803 3.580183 25.798439 0.061486
2005-07-08 07:18:12 51°20.31 2°52.506 21.1766 3.579973 25.796756 0.061486
2005-07-08 07:18:17 51°20.326 2°52.506 21.1749 3.580394 25.801003 0.095195
2005-07-08 07:18:22 51°20.343 2°52.506 21.1824 3.580394 25.801003 0.095195
2005-07-08 07:18:26 51°20.356 2°52.507 21.1799 3.579762 25.795956 0.061486
2005-07-08 07:18:31 51°20.375 2°52.506 21.1816 3.580394 25.800562 0.061486
2005-07-08 07:18:35 51°20.389 2°52.506 21.1816 3.580078 25.798921 0.061486
2005-07-08 07:18:42 51°20.41 2°52.505 21.1863 3.580289 25.799721 0.095195
2005-07-08 07:18:46 51°20.424 2°52.505 21.1845 3.579551 25.794715 0.061486
2005-07-08 07:18:51 51°20.441 2°52.505 21.1838 3.579551 25.794715 0.061486
2005-07-08 07:18:57 51°20.461 2°52.504 21.1841 3.579973 25.797639 0.027777
2005-07-08 07:19:01 51°20.476 2°52.504 21.1861 3.579762 25.796397 0.061486
2005-07-08 07:19:06 51°20.492 2°52.504 21.1906 3.579973 25.798521 0.061486
2005-07-08 07:19:11 51°20.511 2°52.503 21.1866 3.579762 25.79728 0.095195
2005-07-08 07:19:15 51°20.523 2°52.503 21.1927 3.580078 25.798921 0.061486
2005-07-08 07:19:22 51°20.546 2°52.503 21.1956 3.580078 25.798921 0.061486
2005-07-08 07:19:26 51°20.56 2°52.503 21.1926 3.579762 25.798162 0.095195
2005-07-08 07:19:31 51°20.579 2°52.502 21.1926 3.580289 25.801486 0.061486
2005-07-08 07:19:36 51°20.595 2°52.502 21.1924 3.579551 25.796039 0.061486
2005-07-08 07:19:42 51°20.614 2°52.502 21.1984 3.580078 25.799362 0.061486
2005-07-08 07:19:46 51°20.63 2°52.502 21.1998 3.579657 25.79688 0.095195
2005-07-08 07:19:52 51°20.649 2°52.502 21.1964 3.579657 25.79688 0.095195
2005-07-08 07:19:56 51°20.662 2°52.502 21.1992 3.579867 25.798562 0.061486
2005-07-08 07:20:01 51°20.681 2°52.502 21.198 3.579446 25.794756 0.061486
2005-07-08 07:20:06 51°20.696 2°52.503 21.1989 3.579551 25.79648 0.061486
2005-07-08 07:20:11 51°20.715 2°52.503 21.204 3.579867 25.799004 0.061486
2005-07-08 07:20:16 51°20.732 2°52.503 21.2036 3.579341 25.79568 0.061486
2005-07-08 07:20:22 51°20.751 2°52.503 21.2033 3.579341 25.79568 0.061486
2005-07-08 07:20:26 51°20.764 2°52.504 21.2038 3.579762 25.798604 0.061486
2005-07-08 07:20:31 51°20.782 2°52.505 21.2049 3.579025 25.793597 0.061486
2005-07-08 07:20:35 51°20.796 2°52.505 21.2069 3.579973 25.800286 0.027777
2005-07-08 07:20:42 51°20.818 2°52.506 21.2102 3.580078 25.801128 0.061486
2005-07-08 07:20:46 51°20.833 2°52.507 21.2086 3.579446 25.796962 0.095195
2005-07-08 07:20:51 51°20.849 2°52.508 21.208 3.579446 25.796962 0.095195
2005-07-08 07:20:55 51°20.863 2°52.509 21.2097 3.579973 25.800286 0.095195
2005-07-08 07:21:01 51°20.883 2°52.509 21.2097 3.579235 25.794839 0.027777
2005-07-08 07:21:06 51°20.9 2°52.509 21.2111 3.579551 25.796921 0.061486
2005-07-08 07:21:11 51°20.917 2°52.508 21.2142 3.579762 25.799045 0.061486
2005-07-08 07:21:15 51°20.931 2°52.508 21.2137 3.579341 25.796562 0.061486
2005-07-08 07:21:22 51°20.954 2°52.508 21.2135 3.579341 25.796562 0.061486
2005-07-08 07:21:26 51°20.968 2°52.508 21.2138 3.579657 25.798645 0.095195
2005-07-08 07:21:31 51°20.986 2°52.507 21.2137 3.579235 25.795721 0.061486
2005-07-08 07:21:36 51°21.004 2°52.506 21.2156 3.580078 25.80201 0.061486
2005-07-08 07:21:42 51°21.022 2°52.501 21.2157 3.57913 25.795762 0.095195
2005-07-08 07:21:47 51°21.039 2°52.494 21.2197 3.579341 25.798328 0.095195
2005-07-08 07:21:52 51°21.055 2°52.484 21.2185 3.579341 25.798328 0.095195
2005-07-08 07:21:57 51°21.071 2°52.472 21.2167 3.579762 25.802576 0.061486
2005-07-08 07:22:02 51°21.087 2°52.459 21.2213 3.579235 25.797045 0.095195
2005-07-08 07:22:06 51°21.1 2°52.443 21.2216 3.579551 25.800893 0.095195
2005-07-08 07:22:11 51°21.114 2°52.426 21.2223 3.578919 25.794962 0.095195
2005-07-08 07:22:16 51°21.126 2°52.409 21.2249 3.579551 25.799128 0.061486
2005-07-08 07:22:21 51°21.142 2°52.387 21.2245 3.579551 25.799128 0.061486
2005-07-08 07:22:26 51°21.156 2°52.368 21.227 3.579657 25.799969 0.095195
2005-07-08 07:22:31 51°21.17 2°52.347 21.2258 3.579446 25.796962 0.095195
2005-07-08 07:22:36 51°21.182 2°52.329 21.2272 3.578814 25.792356 0.061486
2005-07-08 07:22:42 51°21.198 2°52.306 21.2296 3.579657 25.799086 0.061486
2005-07-08 07:22:46 51°21.21 2°52.29 21.2276 3.579341 25.797004 0.027777
2005-07-08 07:22:51 51°21.225 2°52.268 21.229 3.579341 25.797004 0.027777
2005-07-08 07:22:56 51°21.237 2°52.249 21.2297 3.57913 25.795762 0.061486
2005-07-08 07:23:01 51°21.252 2°52.226 21.2303 3.579446 25.798728 0.095195
2005-07-08 07:23:06 51°21.266 2°52.204 21.2313 3.579235 25.797928 0.095195
2005-07-08 07:23:11 51°21.279 2°52.183 21.2329 3.57913 25.797528 0.061486
2005-07-08 07:23:16 51°21.291 2°52.163 21.2339 3.579025 25.796245 0.061486
2005-07-08 07:23:22 51°21.306 2°52.136 21.2356 3.579025 25.796245 0.061486
2005-07-08 07:23:27 51°21.32 2°52.114 21.2369 3.579551 25.800452 0.095195
2005-07-08 07:23:31 51°21.332 2°52.094 21.2366 3.579551 25.80001 0.061486
2005-07-08 07:23:35 51°21.342 2°52.077 21.2367 3.578603 25.793321 0.061486
2005-07-08 07:23:42 51°21.358 2°52.05 21.24 3.579973 25.803376 0.095195
2005-07-08 07:23:46 51°21.368 2°52.032 21.2396 3.578603 25.794203 0.061486
2005-07-08 07:23:51 51°21.381 2°52.01 21.2401 3.578603 25.794203 0.061486
2005-07-08 07:23:56 51°21.395 2°51.987 21.2405 3.579657 25.801735 0.061486
2005-07-08 07:24:02 51°21.41 2°51.963 21.2414 3.578814 25.795003 0.061486
2005-07-08 07:24:06 51°21.42 2°51.946 21.242 3.578919 25.795845 0.061486
2005-07-08 07:24:12 51°21.437 2°51.921 21.2428 3.579025 25.796686 0.061486
2005-07-08 07:24:16 51°21.449 2°51.902 21.2448 3.579446 25.800052 0.061486
2005-07-08 07:24:22 51°21.464 2°51.879 21.2463 3.579446 25.800052 0.061486
2005-07-08 07:24:26 51°21.475 2°51.863 21.246 3.579025 25.797128 0.095195
2005-07-08 07:24:31 51°21.489 2°51.84 21.248 3.579025 25.796686 0.061486
2005-07-08 07:24:36 51°21.503 2°51.82 21.2493 3.57913 25.799293 0.061486
2005-07-08 07:24:41 51°21.516 2°51.8 21.2503 3.579025 25.797569 0.095195
2005-07-08 07:24:46 51°21.528 2°51.782 21.2507 3.578919 25.79761 0.061486
2005-07-08 07:24:51 51°21.544 2°51.761 21.2516 3.578919 25.79761 0.061486
2005-07-08 07:24:56 51°21.558 2°51.742 21.2516 3.579235 25.799693 0.061486
2005-07-08 07:25:02 51°21.574 2°51.722 21.2531 3.578919 25.797169 0.061486
2005-07-08 07:25:06 51°21.588 2°51.705 21.2539 3.578814 25.796327 0.061486
2005-07-08 07:25:11 51°21.602 2°51.686 21.2543 3.578814 25.796327 0.061486
2005-07-08 07:25:17 51°21.618 2°51.667 21.2558 3.579025 25.798452 0.027777
2005-07-08 07:25:22 51°21.633 2°51.649 21.2575 3.579025 25.798452 0.027777
2005-07-08 07:25:26 51°21.646 2°51.636 21.2578 3.578182 25.792603 0.061486
2005-07-08 07:25:31 51°21.661 2°51.618 21.2581 3.579025 25.798893 0.027777
2005-07-08 07:25:36 51°21.678 2°51.601 21.26 3.578814 25.798093 0.061486
2005-07-08 07:25:42 51°21.695 2°51.583 21.2609 3.578709 25.797693 0.095195
2005-07-08 07:25:47 51°21.711 2°51.567 21.2612 3.578498 25.796893 0.061486
2005-07-08 07:25:52 51°21.725 2°51.553 21.2619 3.578498 25.796893 0.061486
2005-07-08 07:25:56 51°21.74 2°51.541 21.2634 3.578919 25.798935 0.061486
2005-07-08 07:26:02 51°21.758 2°51.527 21.2639 3.578919 25.800259 0.061486
2005-07-08 07:26:06 51°21.771 2°51.517 21.2646 3.578393 25.796051 0.027777
2005-07-08 07:26:11 51°21.789 2°51.503 21.266 3.578498 25.796893 0.095195
2005-07-08 07:26:16 51°21.804 2°51.494 21.2665 3.579025 25.800659 0.095195
2005-07-08 07:26:22 51°21.824 2°51.482 21.2679 3.579025 25.800659 0.095195
2005-07-08 07:26:26 51°21.84 2°51.473 21.269 3.578393 25.796051 0.095195
2005-07-08 07:26:32 51°21.858 2°51.465 21.2699 3.578709 25.798576 0.061486
2005-07-08 07:26:36 51°21.874 2°51.458 21.2703 3.578498 25.797334 0.027777
2005-07-08 07:26:41 51°21.891 2°51.451 21.2717 3.578814 25.8003 0.061486
2005-07-08 07:26:47 51°21.911 2°51.445 21.2728 3.578077 25.795292 0.095195
2005-07-08 07:26:51 51°21.927 2°51.44 21.2734 3.578077 25.795292 0.095195
2005-07-08 07:26:55 51°21.941 2°51.436 21.2744 3.578498 25.7991 0.061486
2005-07-08 07:27:01 51°21.962 2°51.429 21.2755 3.578287 25.797859 0.061486
2005-07-08 07:27:06 51°21.978 2°51.425 21.2766 3.578182 25.797458 0.061486
2005-07-08 07:27:11 51°21.998 2°51.42 21.278 3.578498 25.799542 0.061486
2005-07-08 07:27:16 51°22.015 2°51.418 21.2784 3.578393 25.799142 0.095195
2005-07-08 07:27:21 51°22.032 2°51.415 21.28 3.578393 25.799142 0.095195
2005-07-08 07:27:26 51°22.05 2°51.414 21.2803 3.578393 25.799583 0.095195
2005-07-08 07:27:31 51°22.067 2°51.411 21.2807 3.578287 25.797859 0.061486
2005-07-08 07:27:36 51°22.085 2°51.41 21.282 3.578077 25.796617 0.061486
2005-07-08 07:27:41 51°22.101 2°51.408 21.2832 3.578498 25.801308 0.095195
2005-07-08 07:27:46 51°22.119 2°51.407 21.2838 3.577339 25.792933 0.095195
2005-07-08 07:27:51 51°22.136 2°51.406 21.2843 3.577339 25.792933 0.095195
2005-07-08 07:27:56 51°22.154 2°51.407 21.2856 3.578182 25.799225 0.061486
2005-07-08 07:28:02 51°22.172 2°51.407 21.2867 3.578393 25.800025 0.061486
2005-07-08 07:28:07 51°22.189 2°51.408 21.2878 3.57755 25.794175 0.061486
2005-07-08 07:28:11 51°22.205 2°51.409 21.2891 3.578077 25.798383 0.095195
2005-07-08 07:28:16 51°22.222 2°51.411 21.2895 3.578182 25.799666 0.061486
2005-07-08 07:28:22 51°22.24 2°51.413 21.2903 3.578182 25.799666 0.061486
2005-07-08 07:28:26 51°22.254 2°51.415 21.2921 3.577655 25.795899 0.061486
2005-07-08 07:28:31 51°22.273 2°51.418 21.2925 3.578077 25.799266 0.061486
2005-07-08 07:28:36 51°22.29 2°51.42 21.2936 3.577761 25.797624 0.061486
2005-07-08 07:28:41 51°22.307 2°51.424 21.2943 3.578182 25.800549 0.061486
2005-07-08 07:28:46 51°22.322 2°51.427 21.2951 3.577444 25.795099 0.061486
2005-07-08 07:28:52 51°22.343 2°51.432 21.2952 3.577444 25.795099 0.061486
2005-07-08 07:28:57 51°22.36 2°51.435 21.2972 3.577761 25.799391 0.061486
2005-07-08 07:29:02 51°22.377 2°51.439 21.2969 3.578077 25.800591 0.095195
2005-07-08 07:29:06 51°22.391 2°51.441 21.2976 3.577128 25.794782 0.027777
2005-07-08 07:29:11 51°22.409 2°51.445 21.3 3.57755 25.797266 0.027777
2005-07-08 07:29:15 51°22.423 2°51.447 21.3013 3.577866 25.800232 0.061486
2005-07-08 07:29:22 51°22.445 2°51.452 21.301 3.577866 25.800232 0.061486
2005-07-08 07:29:26 51°22.459 2°51.454 21.3015 3.577444 25.797307 0.061486
2005-07-08 07:29:31 51°22.478 2°51.458 21.3028 3.577655 25.798991 0.061486
2005-07-08 07:29:37 51°22.499 2°51.46 21.3022 3.577234 25.796948 0.061486
2005-07-08 07:29:42 51°22.514 2°51.464 21.304 3.57755 25.798149 0.027777
2005-07-08 07:29:46 51°22.528 2°51.464 21.3031 3.577128 25.796548 0.061486
2005-07-08 07:29:51 51°22.547 2°51.468 21.3051 3.577128 25.796548 0.061486
2005-07-08 07:29:57 51°22.567 2°51.471 21.3051 3.577444 25.797749 0.061486
2005-07-08 07:30:01 51°22.581 2°51.473 21.3066 3.577128 25.796548 0.061486
2005-07-08 07:30:06 51°22.596 2°51.475 21.3087 3.577128 25.796107 0.061486
2005-07-08 07:30:11 51°22.615 2°51.477 21.3087 3.577234 25.79739 0.061486
2005-07-08 07:30:16 51°22.632 2°51.48 21.3103 3.577445 25.79819 0.061486
2005-07-08 07:30:22 51°22.651 2°51.483 21.3104 3.577445 25.79819 0.061486
2005-07-08 07:30:26 51°22.665 2°51.485 21.3104 3.576496 25.792381 0.061486
2005-07-08 07:30:32 51°22.686 2°51.488 21.3116 3.577339 25.798232 0.095195
2005-07-08 07:30:35 51°22.697 2°51.489 21.3137 3.576707 25.793623 0.027777
2005-07-08 07:30:41 51°22.717 2°51.491 21.3143 3.577023 25.796148 0.061486
2005-07-08 07:30:47 51°22.735 2°51.494 21.315 3.577128 25.796548 0.061486
2005-07-08 07:30:52 51°22.753 2°51.497 21.3162 3.577128 25.796548 0.061486
2005-07-08 07:30:57 51°22.77 2°51.498 21.3167 3.576812 25.795348 0.061486
2005-07-08 07:31:02 51°22.787 2°51.501 21.3175 3.576812 25.795348 0.061486
2005-07-08 07:31:06 51°22.801 2°51.503 21.3188 3.576707 25.794506 0.095195
2005-07-08 07:31:11 51°22.82 2°51.505 21.3194 3.576918 25.79619 0.095195
2005-07-08 07:31:16 51°22.835 2°51.507 21.3203 3.576496 25.792822 0.061486
2005-07-08 07:31:22 51°22.857 2°51.51 21.3213 3.576496 25.792822 0.061486
2005-07-08 07:31:26 51°22.87 2°51.512 21.3221 3.577023 25.797915 0.061486
2005-07-08 07:31:31 51°22.889 2°51.514 21.3237 3.576286 25.792463 0.027777
2005-07-08 07:31:36 51°22.906 2°51.516 21.3247 3.576496 25.793705 0.061486
2005-07-08 07:31:41 51°22.923 2°51.519 21.324 3.577023 25.797915 0.061486
2005-07-08 07:31:46 51°22.941 2°51.521 21.3266 3.576075 25.791663 0.061486
2005-07-08 07:31:52 51°22.959 2°51.524 21.3268 3.576075 25.791663 0.061486
2005-07-08 07:31:56 51°22.972 2°51.525 21.3268 3.576496 25.794147 0.095195
2005-07-08 07:32:02 51°22.993 2°51.529 21.3281 3.576496 25.79503 0.095195
2005-07-08 07:32:06 51°23.006 2°51.53 21.3272 3.576707 25.796273 0.061486
2005-07-08 07:32:11 51°23.025 2°51.533 21.3316 3.57618 25.792505 0.027777
2005-07-08 07:32:16 51°23.042 2°51.534 21.3317 3.576918 25.797515 0.061486
2005-07-08 07:32:22 51°23.06 2°51.537 21.3326 3.576918 25.797515 0.061486
2005-07-08 07:32:26 51°23.074 2°51.537 21.3321 3.576075 25.792546 0.027777
2005-07-08 07:32:31 51°23.093 2°51.541 21.3315 3.576075 25.791221 0.095195
2005-07-08 07:32:36 51°23.11 2°51.542 21.3348 3.576391 25.794189 0.061486
2005-07-08 07:32:42 51°23.129 2°51.545 21.3362 3.576707 25.796273 0.027777
2005-07-08 07:32:46 51°23.144 2°51.547 21.3349 3.576286 25.793347 0.095195
2005-07-08 07:32:51 51°23.161 2°51.549 21.338 3.576286 25.793347 0.095195
2005-07-08 07:32:55 51°23.174 2°51.552 21.3378 3.576496 25.795472 0.095195
2005-07-08 07:33:01 51°23.195 2°51.554 21.3395 3.576075 25.792104 0.061486
2005-07-08 07:33:07 51°23.213 2°51.557 21.3392 3.576075 25.792546 0.061486
2005-07-08 07:33:11 51°23.228 2°51.558 21.3396 3.57618 25.79383 0.061486
2005-07-08 07:33:15 51°23.241 2°51.561 21.3427 3.576075 25.792988 0.061486
2005-07-08 07:33:21 51°23.261 2°51.564 21.3428 3.576075 25.792988 0.061486
2005-07-08 07:33:27 51°23.281 2°51.567 21.3434 3.575759 25.79002 0.061486
2005-07-08 07:33:31 51°23.296 2°51.569 21.3447 3.576496 25.795914 0.027777
2005-07-08 07:33:36 51°23.312 2°51.57 21.3457 3.576075 25.792988 0.027777
2005-07-08 07:33:41 51°23.329 2°51.573 21.3464 3.576707 25.79804 0.061486
2005-07-08 07:33:46 51°23.346 2°51.575 21.347 3.576075 25.792988 0.095195
2005-07-08 07:33:51 51°23.362 2°51.578 21.3474 3.576075 25.792988 0.095195
2005-07-08 07:33:56 51°23.379 2°51.58 21.3482 3.576075 25.79343 0.061486
2005-07-08 07:34:02 51°23.398 2°51.583 21.3505 3.576075 25.792988 0.061486
2005-07-08 07:34:06 51°23.411 2°51.585 21.3502 3.575548 25.790103 0.061486
2005-07-08 07:34:11 51°23.43 2°51.589 21.3519 3.57597 25.792588 0.061486
2005-07-08 07:34:16 51°23.447 2°51.591 21.3522 3.575759 25.792229 0.095195
2005-07-08 07:34:22 51°23.465 2°51.595 21.3541 3.575759 25.792229 0.095195
2005-07-08 07:34:26 51°23.48 2°51.596 21.3535 3.57618 25.795155 0.095195
2005-07-08 07:34:31 51°23.496 2°51.6 21.3524 3.575337 25.788861 0.095195
2005-07-08 07:34:36 51°23.513 2°51.602 21.3557 3.57597 25.793471 0.061486
2005-07-08 07:34:42 51°23.531 2°51.605 21.3555 3.57597 25.793913 0.095195
2005-07-08 07:34:46 51°23.547 2°51.606 21.3571 3.575548 25.790986 0.061486
2005-07-08 07:34:51 51°23.564 2°51.609 21.357 3.575548 25.790986 0.061486
2005-07-08 07:34:57 51°23.583 2°51.611 21.3603 3.575759 25.792229 0.095195
2005-07-08 07:35:02 51°23.599 2°51.613 21.361 3.575443 25.790144 0.061486
2005-07-08 07:35:06 51°23.613 2°51.614 21.3613 3.575759 25.793996 0.095195
2005-07-08 07:35:11 51°23.63 2°51.615 21.3623 3.57597 25.794354 0.027777
2005-07-08 07:35:16 51°23.648 2°51.618 21.3626 3.575654 25.791387 0.061486
2005-07-08 07:35:22 51°23.666 2°51.621 21.3625 3.575654 25.791387 0.061486
2005-07-08 07:35:26 51°23.679 2°51.623 21.3631 3.574916 25.787259 0.061486
2005-07-08 07:35:32 51°23.7 2°51.626 21.3635 3.576075 25.795196 0.095195
2005-07-08 07:35:36 51°23.715 2°51.627 21.3663 3.575337 25.789744 0.027777
2005-07-08 07:35:42 51°23.732 2°51.63 21.3654 3.575864 25.794838 0.095195
2005-07-08 07:35:46 51°23.748 2°51.631 21.3687 3.575654 25.791387 0.061486
2005-07-08 07:35:51 51°23.764 2°51.634 21.3677 3.575654 25.791387 0.061486
2005-07-08 07:35:57 51°23.783 2°51.636 21.3688 3.575337 25.789744 0.061486
2005-07-08 07:36:02 51°23.8 2°51.637 21.369 3.575654 25.79227 0.061486
2005-07-08 07:36:06 51°23.814 2°51.639 21.3708 3.575443 25.791028 0.061486
2005-07-08 07:36:11 51°23.832 2°51.642 21.3694 3.575759 25.793112 0.027777
2005-07-08 07:36:16 51°23.847 2°51.644 21.372 3.574916 25.787701 0.061486
2005-07-08 07:36:22 51°23.868 2°51.647 21.374 3.574916 25.787701 0.061486
2005-07-08 07:36:26 51°23.881 2°51.648 21.3734 3.575864 25.793954 0.095195
2005-07-08 07:36:31 51°23.9 2°51.65 21.375 3.575021 25.788985 0.061486
2005-07-08 07:36:37 51°23.92 2°51.652 21.3747 3.575127 25.789827 0.095195
2005-07-08 07:36:42 51°23.935 2°51.653 21.3763 3.575443 25.791911 0.061486
2005-07-08 07:36:46 51°23.951 2°51.655 21.377 3.575443 25.79147 0.095195
2005-07-08 07:36:52 51°23.969 2°51.658 21.3778 3.575443 25.79147 0.095195
2005-07-08 07:36:56 51°23.982 2°51.659 21.3777 3.575654 25.79227 0.095195
2005-07-08 07:37:02 51°24.003 2°51.662 21.38 3.575548 25.792753 0.061486
2005-07-08 07:37:06 51°24.016 2°51.664 21.3802 3.575232 25.790227 0.027777
2005-07-08 07:37:11 51°24.035 2°51.665 21.3801 3.575443 25.792353 0.061486
2005-07-08 07:37:17 51°24.054 2°51.667 21.383 3.575021 25.789868 0.095195
2005-07-08 07:37:22 51°24.07 2°51.669 21.3833 3.575021 25.789868 0.095195
2005-07-08 07:37:26 51°24.084 2°51.671 21.3832 3.575548 25.792753 0.061486
2005-07-08 07:37:31 51°24.1 2°51.672 21.3857 3.575127 25.79071 0.061486
2005-07-08 07:37:35 51°24.116 2°51.675 21.3857 3.575232 25.791111 0.061486
2005-07-08 07:37:42 51°24.139 2°51.677 21.387 3.575127 25.790269 0.061486
2005-07-08 07:37:46 51°24.154 2°51.678 21.3869 3.575232 25.791994 0.027777
2005-07-08 07:37:51 51°24.169 2°51.68 21.3877 3.575232 25.791994 0.027777
2005-07-08 07:37:55 51°24.185 2°51.682 21.3883 3.575021 25.79031 0.061486
2005-07-08 07:38:02 51°24.207 2°51.684 21.3894 3.575443 25.793237 0.061486
2005-07-08 07:38:06 51°24.222 2°51.686 21.3901 3.575021 25.789868 0.095195
2005-07-08 07:38:11 51°24.239 2°51.688 21.3925 3.575021 25.79031 0.095195
2005-07-08 07:38:17 51°24.259 2°51.69 21.393 3.575232 25.791994 0.027777
2005-07-08 07:38:22 51°24.274 2°51.692 21.3928 3.575232 25.791994 0.027777
2005-07-08 07:38:26 51°24.288 2°51.693 21.3931 3.574811 25.789068 0.095195
2005-07-08 07:38:32 51°24.309 2°51.695 21.3966 3.575443 25.794562 0.061486
2005-07-08 07:38:36 51°24.324 2°51.697 21.3965 3.575021 25.790752 0.095195
2005-07-08 07:38:42 51°24.342 2°51.699 21.3977 3.575127 25.792478 0.061486
2005-07-08 07:38:46 51°24.356 2°51.699 21.3986 3.575127 25.792036 0.095195
2005-07-08 07:38:52 51°24.376 2°51.702 21.3997 3.575127 25.792036 0.095195
2005-07-08 07:38:56 51°24.392 2°51.703 21.4013 3.575021 25.791635 0.027777
2005-07-08 07:39:02 51°24.41 2°51.705 21.4005 3.574916 25.791235 0.095195
2005-07-08 07:39:07 51°24.427 2°51.706 21.4002 3.575443 25.795446 0.061486
2005-07-08 07:39:11 51°24.443 2°51.708 21.4019 3.575338 25.794162 0.095195
2005-07-08 07:39:16 51°24.459 2°51.71 21.402 3.575021 25.792077 0.061486
2005-07-08 07:39:22 51°24.477 2°51.711 21.4047 3.575021 25.792077 0.061486
2005-07-08 07:39:26 51°24.491 2°51.712 21.4046 3.575127 25.792478 0.061486
2005-07-08 07:39:31 51°24.508 2°51.714 21.4035 3.574705 25.789993 0.061486
2005-07-08 07:39:35 51°24.523 2°51.714 21.4037 3.574811 25.790835 0.061486
2005-07-08 07:39:41 51°24.544 2°51.717 21.4073 3.5746 25.789592 0.061486
2005-07-08 07:39:46 51°24.56 2°51.719 21.4079 3.575338 25.795046 0.061486
2005-07-08 07:39:52 51°24.579 2°51.721 21.409 3.575338 25.795046 0.061486
2005-07-08 07:39:56 51°24.594 2°51.722 21.4109 3.5746 25.790476 0.061486
2005-07-08 07:40:02 51°24.612 2°51.724 21.4089 3.574705 25.790434 0.061486
2005-07-08 07:40:06 51°24.625 2°51.725 21.4102 3.575232 25.794645 0.061486
2005-07-08 07:40:11 51°24.644 2°51.727 21.4104 3.5746 25.789592 0.061486
2005-07-08 07:40:17 51°24.663 2°51.729 21.4108 3.5746 25.790034 0.061486
2005-07-08 07:40:22 51°24.68 2°51.731 21.4119 3.5746 25.790034 0.061486
2005-07-08 07:40:26 51°24.693 2°51.733 21.4149 3.574811 25.792602 0.061486
2005-07-08 07:40:31 51°24.711 2°51.735 21.4154 3.574284 25.788391 0.061486
2005-07-08 07:40:36 51°24.726 2°51.737 21.4158 3.574495 25.789634 0.061486
2005-07-08 07:40:41 51°24.745 2°51.739 21.4185 3.5746 25.790918 0.095195
2005-07-08 07:40:46 51°24.762 2°51.741 21.417 3.574705 25.791318 0.061486
2005-07-08 07:40:51 51°24.779 2°51.743 21.4189 3.574705 25.791318 0.061486
2005-07-08 07:40:56 51°24.795 2°51.745 21.4207 3.574705 25.792202 0.061486
2005-07-08 07:41:01 51°24.813 2°51.747 21.4214 3.574284 25.788391 0.095195
2005-07-08 07:41:07 51°24.831 2°51.75 21.4201 3.574495 25.791401 0.095195
2005-07-08 07:41:11 51°24.846 2°51.752 21.4244 3.574179 25.788874 0.061486
2005-07-08 07:41:16 51°24.862 2°51.754 21.4232 3.574916 25.79477 0.095195
2005-07-08 07:41:22 51°24.881 2°51.756 21.423 3.574916 25.79477 0.095195
2005-07-08 07:41:27 51°24.898 2°51.757 21.4233 3.574179 25.788874 0.061486
2005-07-08 07:41:31 51°24.913 2°51.758 21.4259 3.574495 25.790959 0.061486
2005-07-08 07:41:36 51°24.93 2°51.76 21.4261 3.5746 25.79136 0.095195
2005-07-08 07:41:42 51°24.949 2°51.762 21.4275 3.574389 25.790117 0.061486
2005-07-08 07:41:46 51°24.962 2°51.762 21.4259 3.574179 25.788433 0.061486
2005-07-08 07:41:51 51°24.98 2°51.765 21.4302 3.574179 25.788433 0.061486
2005-07-08 07:41:56 51°24.999 2°51.766 21.4312 3.574916 25.79477 0.061486
2005-07-08 07:42:02 51°25.017 2°51.768 21.4313 3.574179 25.789316 0.061486
2005-07-08 07:42:06 51°25.031 2°51.769 21.4296 3.5746 25.792685 0.061486
2005-07-08 07:42:12 51°25.052 2°51.772 21.4314 3.574389 25.790559 0.095195
2005-07-08 07:42:16 51°25.067 2°51.774 21.4336 3.574389 25.791001 0.027777
2005-07-08 07:42:22 51°25.085 2°51.777 21.4336 3.574389 25.791001 0.027777
2005-07-08 07:42:26 51°25.101 2°51.78 21.4328 3.574389 25.790559 0.061486
2005-07-08 07:42:31 51°25.118 2°51.783 21.4371 3.574179 25.789316 0.061486
2005-07-08 07:42:35 51°25.131 2°51.786 21.4349 3.573968 25.787632 0.061486
2005-07-08 07:42:41 51°25.152 2°51.791 21.4374 3.574284 25.7906 0.061486
2005-07-08 07:42:46 51°25.168 2°51.794 21.4383 3.574073 25.789358 0.061486
2005-07-08 07:42:52 51°25.188 2°51.798 21.4379 3.574073 25.789358 0.061486
2005-07-08 07:42:56 51°25.202 2°51.802 21.4413 3.574389 25.791885 0.061486
2005-07-08 07:43:02 51°25.222 2°51.805 21.4386 3.574073 25.789358 0.061486
2005-07-08 07:43:07 51°25.24 2°51.81 21.4417 3.574284 25.791042 0.061486
2005-07-08 07:43:11 51°25.254 2°51.812 21.4409 3.573652 25.787314 0.061486
2005-07-08 07:43:17 51°25.273 2°51.816 21.4442 3.574284 25.791926 0.061486
2005-07-08 07:43:22 51°25.29 2°51.82 21.4449 3.574284 25.791926 0.061486
2005-07-08 07:43:26 51°25.303 2°51.823 21.4451 3.574389 25.791885 0.061486
2005-07-08 07:43:31 51°25.321 2°51.827 21.4444 3.573968 25.789399 0.095195
2005-07-08 07:43:36 51°25.337 2°51.83 21.4481 3.574389 25.792326 0.061486
2005-07-08 07:43:42 51°25.356 2°51.833 21.4465 3.574179 25.791084 0.095195
2005-07-08 07:43:46 51°25.37 2°51.837 21.4498 3.573757 25.787715 0.061486
2005-07-08 07:43:51 51°25.388 2°51.84 21.4485 3.573757 25.787715 0.061486
2005-07-08 07:43:57 51°25.407 2°51.844 21.4485 3.573863 25.789441 0.095195
2005-07-08 07:44:02 51°25.423 2°51.847 21.4491 3.574179 25.791526 0.061486
2005-07-08 07:44:06 51°25.437 2°51.85 21.4529 3.573863 25.788557 0.095195
2005-07-08 07:44:11 51°25.453 2°51.853 21.4517 3.573968 25.790725 0.061486
2005-07-08 07:44:17 51°25.473 2°51.858 21.45 3.573968 25.789841 0.027777
2005-07-08 07:44:22 51°25.49 2°51.863 21.4539 3.573968 25.789841 0.027777
2005-07-08 07:44:26 51°25.505 2°51.866 21.4546 3.574284 25.792368 0.027777
2005-07-08 07:44:32 51°25.523 2°51.87 21.454 3.573652 25.78864 0.095195
2005-07-08 07:44:36 51°25.536 2°51.874 21.4554 3.574389 25.793652 0.061486
2005-07-08 07:44:42 51°25.556 2°51.879 21.4566 3.573547 25.787356 0.095195
2005-07-08 07:44:47 51°25.573 2°51.885 21.4556 3.573863 25.789883 0.061486
2005-07-08 07:44:52 51°25.589 2°51.89 21.4598 3.573863 25.789883 0.061486
2005-07-08 07:44:55 51°25.601 2°51.895 21.4583 3.573863 25.789441 0.061486
2005-07-08 07:45:02 51°25.622 2°51.903 21.4593 3.573863 25.789883 0.095195
2005-07-08 07:45:06 51°25.636 2°51.908 21.4613 3.574073 25.791567 0.061486
2005-07-08 07:45:11 51°25.653 2°51.917 21.4623 3.574073 25.791567 0.061486
2005-07-08 07:45:16 51°25.67 2°51.924 21.4612 3.573968 25.791167 0.061486
2005-07-08 07:45:22 51°25.686 2°51.935 21.4604 3.573968 25.791167 0.061486
2005-07-08 07:45:26 51°25.701 2°51.944 21.4623 3.573863 25.789883 0.061486
2005-07-08 07:45:32 51°25.717 2°51.956 21.4671 3.573863 25.789883 0.095195
2005-07-08 07:45:36 51°25.73 2°51.964 21.4666 3.573863 25.791209 0.061486
2005-07-08 07:45:42 51°25.748 2°51.979 21.4664 3.573968 25.791167 0.095195
2005-07-08 07:45:47 51°25.762 2°51.99 21.4651 3.573547 25.788239 0.061486
2005-07-08 07:45:52 51°25.778 2°52.003 21.4662 3.573547 25.788239 0.061486
2005-07-08 07:45:56 51°25.79 2°52.014 21.4692 3.573652 25.789524 0.061486
2005-07-08 07:46:02 51°25.805 2°52.029 21.4669 3.573547 25.788239 0.095195
2005-07-08 07:46:06 51°25.818 2°52.042 21.468 3.574179 25.79241 0.027777
2005-07-08 07:46:11 51°25.83 2°52.055 21.4686 3.573336 25.786997 0.061486
2005-07-08 07:46:16 51°25.845 2°52.068 21.4697 3.573652 25.790408 0.095195
2005-07-08 07:46:22 51°25.862 2°52.083 21.4721 3.573652 25.790408 0.095195
2005-07-08 07:46:27 51°25.878 2°52.096 21.4755 3.574073 25.792451 0.061486
2005-07-08 07:46:31 51°25.889 2°52.106 21.4749 3.573231 25.786154 0.061486
2005-07-08 07:46:35 51°25.901 2°52.115 21.4742 3.573757 25.79125 0.061486
2005-07-08 07:46:42 51°25.919 2°52.132 21.473 3.573547 25.788239 0.061486
2005-07-08 07:46:46 51°25.931 2°52.142 21.4749 3.573336 25.78788 0.095195
2005-07-08 07:46:51 51°25.946 2°52.154 21.4771 3.573336 25.78788 0.095195
2005-07-08 07:46:56 51°25.961 2°52.166 21.4785 3.573968 25.792051 0.061486
2005-07-08 07:47:01 51°25.977 2°52.179 21.4793 3.573863 25.791209 0.095195
2005-07-08 07:47:06 51°25.991 2°52.19 21.4805 3.573652 25.789524 0.095195
2005-07-08 07:47:12 51°26.008 2°52.205 21.4783 3.574073 25.793335 0.027777
2005-07-08 07:47:16 51°26.021 2°52.217 21.48 3.573231 25.787038 0.061486
2005-07-08 07:47:22 51°26.037 2°52.23 21.4786 3.573231 25.787038 0.061486
2005-07-08 07:47:26 51°26.05 2°52.241 21.4828 3.573863 25.792093 0.061486
2005-07-08 07:47:31 51°26.065 2°52.253 21.484 3.573968 25.792051 0.061486
2005-07-08 07:47:35 51°26.076 2°52.262 21.4834 3.573547 25.789565 0.061486
2005-07-08 07:47:42 51°26.095 2°52.28 21.4883 3.573441 25.788281 0.027777
2005-07-08 07:47:46 51°26.109 2°52.29 21.4883 3.573757 25.790808 0.061486
2005-07-08 07:47:52 51°26.124 2°52.305 21.4857 3.573757 25.790808 0.061486
2005-07-08 07:47:56 51°26.138 2°52.317 21.4891 3.573547 25.788681 0.061486
2005-07-08 07:48:02 51°26.153 2°52.331 21.4913 3.573757 25.79125 0.027777
2005-07-08 07:48:06 51°26.165 2°52.341 21.4901 3.573547 25.790007 0.061486
2005-07-08 07:48:11 51°26.18 2°52.354 21.4898 3.573547 25.789565 0.095195
2005-07-08 07:48:16 51°26.196 2°52.369 21.4928 3.573652 25.79085 0.061486
2005-07-08 07:48:22 51°26.212 2°52.384 21.4909 3.573652 25.79085 0.061486
2005-07-08 07:48:26 51°26.223 2°52.394 21.4926 3.573336 25.788764 0.061486
2005-07-08 07:48:31 51°26.239 2°52.409 21.4961 3.573863 25.792093 0.061486
2005-07-08 07:48:35 51°26.25 2°52.418 21.4961 3.573441 25.789607 0.061486
2005-07-08 07:48:42 51°26.269 2°52.436 21.4978 3.573652 25.790408 0.061486
2005-07-08 07:48:46 51°26.28 2°52.446 21.4969 3.573336 25.788764 0.027777
2005-07-08 07:48:51 51°26.296 2°52.461 21.4975 3.573336 25.788764 0.027777
2005-07-08 07:48:56 51°26.311 2°52.475 21.4995 3.573441 25.789165 0.095195
2005-07-08 07:49:02 51°26.327 2°52.49 21.5006 3.573547 25.790007 0.061486
2005-07-08 07:49:06 51°26.34 2°52.502 21.5026 3.573231 25.787922 0.061486
2005-07-08 07:49:12 51°26.356 2°52.516 21.5012 3.573125 25.787522 0.027777
2005-07-08 07:49:16 51°26.369 2°52.529 21.5037 3.573547 25.790007 0.061486
2005-07-08 07:49:21 51°26.383 2°52.542 21.5037 3.573547 25.790007 0.061486
2005-07-08 07:49:26 51°26.398 2°52.554 21.5054 3.573547 25.790007 0.095195
2005-07-08 07:49:31 51°26.412 2°52.568 21.5056 3.573125 25.786638 0.095195
2005-07-08 07:49:36 51°26.427 2°52.581 21.5055 3.573547 25.790891 0.061486
2005-07-08 07:49:41 51°26.441 2°52.594 21.5029 3.573441 25.789607 0.027777
2005-07-08 07:49:46 51°26.456 2°52.608 21.5099 3.573125 25.787963 0.061486
2005-07-08 07:49:51 51°26.47 2°52.621 21.5086 3.573125 25.787963 0.061486
2005-07-08 07:49:56 51°26.485 2°52.634 21.5069 3.573547 25.790449 0.061486
2005-07-08 07:50:02 51°26.501 2°52.649 21.5122 3.573336 25.789206 0.061486
2005-07-08 07:50:06 51°26.513 2°52.66 21.5086 3.573125 25.787522 0.061486
2005-07-08 07:50:11 51°26.529 2°52.674 21.5113 3.573757 25.792134 0.027777
2005-07-08 07:50:16 51°26.542 2°52.685 21.5102 3.573652 25.791734 0.095195
2005-07-08 07:50:21 51°26.558 2°52.7 21.5143 3.573652 25.791734 0.095195
2005-07-08 07:50:26 51°26.571 2°52.712 21.5163 3.573863 25.793419 0.027777
2005-07-08 07:50:31 51°26.587 2°52.725 21.5158 3.573125 25.788405 0.061486
2005-07-08 07:50:36 51°26.602 2°52.739 21.5128 3.573441 25.790049 0.061486
2005-07-08 07:50:42 51°26.618 2°52.753 21.516 3.573336 25.788764 0.095195
2005-07-08 07:50:46 51°26.629 2°52.764 21.5144 3.573441 25.790049 0.095195
2005-07-08 07:50:51 51°26.646 2°52.779 21.5186 3.573441 25.790049 0.095195
2005-07-08 07:50:55 51°26.658 2°52.789 21.5192 3.573336 25.789206 0.061486
2005-07-08 07:51:02 51°26.677 2°52.807 21.5176 3.573441 25.790049 0.095195
2005-07-08 07:51:06 51°26.691 2°52.817 21.518 3.573441 25.789165 0.095195
2005-07-08 07:51:11 51°26.706 2°52.83 21.5222 3.573231 25.788364 0.061486
2005-07-08 07:51:16 51°26.721 2°52.842 21.5225 3.573652 25.791292 0.095195
2005-07-08 07:51:22 51°26.737 2°52.856 21.5204 3.573652 25.791292 0.095195
2005-07-08 07:51:26 51°26.749 2°52.866 21.5217 3.573336 25.789206 0.095195
2005-07-08 07:51:32 51°26.766 2°52.881 21.5208 3.573336 25.788764 0.061486
2005-07-08 07:51:36 51°26.78 2°52.893 21.5234 3.573336 25.789206 0.061486
2005-07-08 07:51:42 51°26.796 2°52.907 21.5239 3.573231 25.789248 0.095195
2005-07-08 07:51:46 51°26.807 2°52.917 21.5272 3.573441 25.790049 0.095195
2005-07-08 07:51:52 51°26.825 2°52.932 21.5293 3.573441 25.790049 0.095195
2005-07-08 07:51:56 51°26.836 2°52.942 21.5239 3.573757 25.792576 0.095195
2005-07-08 07:52:02 51°26.854 2°52.959 21.5299 3.573547 25.790891 0.027777
2005-07-08 07:52:06 51°26.867 2°52.969 21.5308 3.57302 25.786679 0.061486
2005-07-08 07:52:12 51°26.883 2°52.983 21.5285 3.573547 25.790449 0.061486
2005-07-08 07:52:16 51°26.897 2°52.995 21.5333 3.573125 25.78708 0.061486
2005-07-08 07:52:22 51°26.912 2°53.008 21.5343 3.573125 25.78708 0.061486
2005-07-08 07:52:26 51°26.925 2°53.02 21.5348 3.573125 25.786638 0.061486
2005-07-08 07:52:31 51°26.94 2°53.033 21.5332 3.573441 25.789607 0.095195
2005-07-08 07:52:37 51°26.956 2°53.047 21.5382 3.573125 25.78708 0.061486
2005-07-08 07:52:42 51°26.97 2°53.06 21.537 3.573968 25.793819 0.061486
2005-07-08 07:52:46 51°26.983 2°53.073 21.5343 3.573547 25.789565 0.061486
2005-07-08 07:52:51 51°26.998 2°53.085 21.534 3.573547 25.789565 0.061486
2005-07-08 07:52:57 51°27.014 2°53.099 21.5396 3.573231 25.787922 0.095195
2005-07-08 07:53:02 51°27.028 2°53.111 21.542 3.573441 25.789607 0.061486
2005-07-08 07:53:06 51°27.039 2°53.122 21.5376 3.573336 25.788322 0.095195
2005-07-08 07:53:11 51°27.055 2°53.137 21.5429 3.573441 25.788281 0.027777
2005-07-08 07:53:15 51°27.067 2°53.147 21.543 3.573441 25.788723 0.061486
2005-07-08 07:53:22 51°27.085 2°53.164 21.5428 3.573441 25.788723 0.061486
2005-07-08 07:53:26 51°27.097 2°53.174 21.542 3.573231 25.78748 0.061486
2005-07-08 07:53:31 51°27.113 2°53.19 21.5453 3.573441 25.789607 0.095195
2005-07-08 07:53:37 51°27.129 2°53.203 21.5422 3.573441 25.788723 0.095195
2005-07-08 07:53:42 51°27.143 2°53.218 21.5463 3.573547 25.789123 0.061486
2005-07-08 07:53:46 51°27.156 2°53.229 21.5477 3.573547 25.790007 0.061486
2005-07-08 07:53:51 51°27.17 2°53.242 21.5481 3.573547 25.790007 0.061486
2005-07-08 07:53:56 51°27.184 2°53.255 21.5455 3.573336 25.78788 0.061486
2005-07-08 07:54:02 51°27.201 2°53.27 21.5473 3.573757 25.791692 0.095195
2005-07-08 07:54:06 51°27.213 2°53.279 21.5483 3.573441 25.789607 0.061486
2005-07-08 07:54:11 51°27.228 2°53.29 21.5503 3.573441 25.789165 0.061486
2005-07-08 07:54:15 51°27.24 2°53.298 21.5547 3.573757 25.790808 0.061486
2005-07-08 07:54:22 51°27.259 2°53.312 21.5523 3.573757 25.790808 0.061486
2005-07-08 07:54:26 51°27.271 2°53.321 21.5514 3.573336 25.78788 0.061486
2005-07-08 07:54:31 51°27.287 2°53.333 21.5513 3.573547 25.788681 0.095195
2005-07-08 07:54:36 51°27.302 2°53.344 21.5569 3.573968 25.791609 0.027777
2005-07-08 07:54:42 51°27.318 2°53.354 21.5549 3.573547 25.788681 0.061486
2005-07-08 07:54:46 51°27.33 2°53.362 21.5527 3.573125 25.785312 0.061486
2005-07-08 07:54:52 51°27.349 2°53.376 21.5574 3.573125 25.785312 0.061486
2005-07-08 07:54:56 51°27.361 2°53.384 21.5576 3.573441 25.788723 0.027777
2005-07-08 07:55:01 51°27.378 2°53.396 21.5593 3.573547 25.788681 0.061486
2005-07-08 07:55:06 51°27.393 2°53.406 21.5602 3.573757 25.789924 0.061486
2005-07-08 07:55:11 51°27.408 2°53.417 21.5583 3.573968 25.791167 0.061486
2005-07-08 07:55:17 51°27.425 2°53.429 21.562 3.573231 25.786154 0.061486
2005-07-08 07:55:22 51°27.44 2°53.439 21.5594 3.573231 25.786154 0.061486
2005-07-08 07:55:26 51°27.452 2°53.448 21.5606 3.573863 25.791209 0.027777
2005-07-08 07:55:31 51°27.469 2°53.459 21.5634 3.573863 25.790767 0.061486
2005-07-08 07:55:36 51°27.482 2°53.47 21.5632 3.573547 25.788239 0.061486
2005-07-08 07:55:42 51°27.501 2°53.483 21.5617 3.573231 25.785712 0.061486
2005-07-08 07:55:46 51°27.513 2°53.492 21.5649 3.573968 25.791609 0.095195
2005-07-08 07:55:52 51°27.53 2°53.504 21.5694 3.573968 25.791609 0.095195
2005-07-08 07:55:56 51°27.544 2°53.514 21.5667 3.573652 25.788198 0.061486
2005-07-08 07:56:02 51°27.56 2°53.527 21.5713 3.573547 25.787798 0.061486
2005-07-08 07:56:06 51°27.574 2°53.536 21.5699 3.573968 25.790725 0.095195